Observation data for Hobbs on 07/20/2019      Previous  Date  Next       Current Mesonet Observations  Soil Data  Daily Summary Page  Observations in Plain Language
KHO1 200500Z 16015KT 29/08 A3001 RMK A01 T02890084  RH  028%=      5-min Rain = 0
KHO1 200501Z 16020KT 29/08 A3001 RMK A01 T02890083  RH  027%=      5-min Rain = 0
KHO1 200502Z 16019KT 29/08 A3001 RMK A01 T02890083  RH  027%=      5-min Rain = 0
KHO1 200503Z 17018KT 29/08 A3001 RMK A01 T02890083  RH  027%=      5-min Rain = 0
KHO1 200504Z 16020KT 29/08 A3001 RMK A01 T02890083  RH  027%=      5-min Rain = 0
KHO1 200505Z 17020G25KT 29/08 A3001 RMK A01 T02890083  RH  027%=      5-min Rain = 0
KHO1 200506Z 16016KT 29/08 A3001 RMK A01 T02890083  RH  028%=      5-min Rain = 0
KHO1 200507Z 16015G20KT 29/08 A3001 RMK A01 T02880083  RH  028%=      5-min Rain = 0
KHO1 200508Z 17016KT 29/08 A3001 RMK A01 T02880083  RH  028%=      5-min Rain = 0
KHO1 200509Z 17017G23KT 29/08 A3001 RMK A01 T02870083  RH  028%=      5-min Rain = 0
KHO1 200510Z 16013KT 29/08 A3002 RMK A01 T02870084  RH  028%=      5-min Rain = 0
KHO1 200511Z 17014G19KT 29/08 A3002 RMK A01 T02860084  RH  028%=      5-min Rain = 0
KHO1 200512Z 17018KT 29/08 A3001 RMK A01 T02860084  RH  028%=      5-min Rain = 0
KHO1 200513Z 17015KT 29/08 A3001 RMK A01 T02870084  RH  028%=      5-min Rain = 0
KHO1 200514Z 17016KT 29/08 A3002 RMK A01 T02860084  RH  028%=      5-min Rain = 0
KHO1 200515Z 17016KT 29/08 A3002 RMK A01 T02860084  RH  028%=      5-min Rain = 0
KHO1 200516Z 17015KT 29/08 A3002 RMK A01 T02860084  RH  028%=      5-min Rain = 0
KHO1 200517Z 17016KT 29/08 A3002 RMK A01 T02850084  RH  028%=      5-min Rain = 0
KHO1 200518Z 17019G24KT 29/08 A3002 RMK A01 T02860084  RH  028%=      5-min Rain = 0
KHO1 200519Z 17017KT 29/08 A3002 RMK A01 T02860084  RH  028%=      5-min Rain = 0
KHO1 200520Z 17017KT 29/08 A3002 RMK A01 T02850084  RH  028%=      5-min Rain = 0
KHO1 200521Z 17017KT 29/08 A3002 RMK A01 T02850084  RH  028%=      5-min Rain = 0
KHO1 200522Z 17015G20KT 29/08 A3002 RMK A01 T02850084  RH  028%=      5-min Rain = 0
KHO1 200523Z 16017KT 28/08 A3002 RMK A01 T02840084  RH  029%=      5-min Rain = 0
KHO1 200524Z 16017KT 28/08 A3002 RMK A01 T02840084  RH  029%=      5-min Rain = 0
KHO1 200525Z 17019KT 28/09 A3002 RMK A01 T02840085  RH  029%=      5-min Rain = 0
KHO1 200526Z 17016KT 28/09 A3002 RMK A01 T02840085  RH  029%=      5-min Rain = 0
KHO1 200527Z 17017G24KT 28/09 A3002 RMK A01 T02840085  RH  029%=      5-min Rain = 0
KHO1 200528Z 17017G23KT 28/09 A3002 RMK A01 T02840085  RH  029%=      5-min Rain = 0
KHO1 200529Z 17016G21KT 28/09 A3002 RMK A01 T02830085  RH  029%=      5-min Rain = 0
KHO1 200530Z 17016KT 28/09 A3002 RMK A01 T02830085  RH  029%=      5-min Rain = 0
KHO1 200531Z 17016KT 28/09 A3002 RMK A01 T02830085  RH  029%=      5-min Rain = 0
KHO1 200532Z 17017KT 28/09 A3002 RMK A01 T02830085  RH  029%=      5-min Rain = 0
KHO1 200533Z 17019KT 28/09 A3002 RMK A01 T02820085  RH  029%=      5-min Rain = 0
KHO1 200534Z 17018G24KT 28/09 A3002 RMK A01 T02830085  RH  029%=      5-min Rain = 0
KHO1 200535Z 17018KT 28/09 A3002 RMK A01 T02830085  RH  029%=      5-min Rain = 0
KHO1 200536Z 17018KT 28/09 A3002 RMK A01 T02820085  RH  029%=      5-min Rain = 0
KHO1 200537Z 17016KT 28/09 A3002 RMK A01 T02820085  RH  029%=      5-min Rain = 0
KHO1 200538Z 17014G19KT 28/09 A3002 RMK A01 T02810085  RH  029%=      5-min Rain = 0
KHO1 200539Z 17017KT 28/09 A3002 RMK A01 T02810085  RH  029%=      5-min Rain = 0
KHO1 200540Z 17017KT 28/09 A3002 RMK A01 T02810085  RH  029%=      5-min Rain = 0
KHO1 200541Z 17015KT 28/09 A3002 RMK A01 T02810085  RH  029%=      5-min Rain = 0
KHO1 200542Z 17013KT 28/09 A3002 RMK A01 T02800085  RH  029%=      5-min Rain = 0
KHO1 200543Z 16017KT 28/09 A3002 RMK A01 T02800085  RH  029%=      5-min Rain = 0
KHO1 200544Z 17015KT 28/09 A3002 RMK A01 T02800085  RH  029%=      5-min Rain = 0
KHO1 200545Z 17016KT 28/09 A3002 RMK A01 T02790085  RH  029%=      5-min Rain = 0
KHO1 200546Z 17016KT 28/09 A3001 RMK A01 T02790085  RH  029%=      5-min Rain = 0
KHO1 200547Z 17015KT 28/09 A3001 RMK A01 T02790085  RH  030%=      5-min Rain = 0
KHO1 200548Z 17015KT 28/09 A3002 RMK A01 T02790085  RH  030%=      5-min Rain = 0
KHO1 200549Z 16014KT 28/09 A3002 RMK A01 T02780085  RH  030%=      5-min Rain = 0
KHO1 200550Z 16016KT 28/09 A3001 RMK A01 T02780085  RH  030%=      5-min Rain = 0
KHO1 200551Z 17015KT 28/09 A3001 RMK A01 T02780085  RH  030%=      5-min Rain = 0
KHO1 200552Z 17016KT 28/09 A3002 RMK A01 T02780085  RH  030%=      5-min Rain = 0
KHO1 200553Z 16016KT 28/09 A3002 RMK A01 T02780086  RH  030%=      5-min Rain = 0
KHO1 200554Z 17019KT 28/09 A3002 RMK A01 T02780086  RH  030%=      5-min Rain = 0
KHO1 200555Z 17018KT 28/09 A3002 RMK A01 T02780086  RH  030%=      5-min Rain = 0
KHO1 200556Z 17013KT 28/09 A3002 RMK A01 T02780086  RH  030%=      5-min Rain = 0
KHO1 200557Z 17013KT 28/09 A3002 RMK A01 T02770086  RH  030%=      5-min Rain = 0
KHO1 200558Z 16015KT 28/09 A3001 RMK A01 T02770086  RH  030%=      5-min Rain = 0
KHO1 200559Z 17016KT 28/09 A3001 RMK A01 T02770086  RH  030%=      5-min Rain = 0
KHO1 200600Z 17015KT 28/09 A3001 RMK A01 T02760087  RH  030%=      5-min Rain = 0
KHO1 200601Z 17017KT 28/09 A3001 RMK A01 T02770087  RH  030%=      5-min Rain = 0
KHO1 200602Z 17013G18KT 28/09 A3001 RMK A01 T02770087  RH  030%=      5-min Rain = 0
KHO1 200603Z 17015KT 28/09 A3001 RMK A01 T02760087  RH  030%=      5-min Rain = 0
KHO1 200604Z 17015G20KT 28/09 A3001 RMK A01 T02760087  RH  030%=      5-min Rain = 0
KHO1 200605Z 17015KT 28/09 A3001 RMK A01 T02760087  RH  031%=      5-min Rain = 0
KHO1 200606Z 17016KT 28/09 A3001 RMK A01 T02760088  RH  031%=      5-min Rain = 0
KHO1 200607Z 17013KT 28/09 A3001 RMK A01 T02760088  RH  031%=      5-min Rain = 0
KHO1 200608Z 17014KT 28/09 A3001 RMK A01 T02750088  RH  031%=      5-min Rain = 0
KHO1 200609Z 17015KT 28/09 A3001 RMK A01 T02750088  RH  031%=      5-min Rain = 0
KHO1 200610Z 17017KT 28/09 A3001 RMK A01 T02750088  RH  031%=      5-min Rain = 0
KHO1 200611Z 17014KT 28/09 A3001 RMK A01 T02750088  RH  031%=      5-min Rain = 0
KHO1 200612Z 17015KT 27/09 A3001 RMK A01 T02740088  RH  031%=      5-min Rain = 0
KHO1 200613Z 17015KT 27/09 A3001 RMK A01 T02740089  RH  031%=      5-min Rain = 0
KHO1 200614Z 17017KT 27/09 A3001 RMK A01 T02740089  RH  031%=      5-min Rain = 0
KHO1 200615Z 17016KT 28/09 A3001 RMK A01 T02750089  RH  031%=      5-min Rain = 0
KHO1 200616Z 17014KT 27/09 A3001 RMK A01 T02740089  RH  031%=      5-min Rain = 0
KHO1 200617Z 17012KT 27/09 A3001 RMK A01 T02730089  RH  031%=      5-min Rain = 0
KHO1 200618Z 17014KT 27/09 A3001 RMK A01 T02730089  RH  031%=      5-min Rain = 0
KHO1 200619Z 17013G19KT 27/09 A3001 RMK A01 T02730090  RH  032%=      5-min Rain = 0
KHO1 200620Z 17015KT 27/09 A3001 RMK A01 T02730090  RH  032%=      5-min Rain = 0
KHO1 200621Z 17014KT 27/09 A3001 RMK A01 T02730090  RH  032%=      5-min Rain = 0
KHO1 200622Z 17014KT 27/09 A3001 RMK A01 T02720090  RH  032%=      5-min Rain = 0
KHO1 200623Z 17017KT 27/09 A3001 RMK A01 T02720090  RH  032%=      5-min Rain = 0
KHO1 200624Z 17013G18KT 27/09 A3001 RMK A01 T02730090  RH  032%=      5-min Rain = 0
KHO1 200625Z 17013G18KT 27/09 A3001 RMK A01 T02720090  RH  032%=      5-min Rain = 0
KHO1 200626Z 17015KT 27/09 A3001 RMK A01 T02720091  RH  032%=      5-min Rain = 0
KHO1 200627Z 17013KT 27/09 A3001 RMK A01 T02720091  RH  032%=      5-min Rain = 0
KHO1 200628Z 17015KT 27/09 A3001 RMK A01 T02720091  RH  032%=      5-min Rain = 0
KHO1 200629Z 17015G20KT 27/09 A3001 RMK A01 T02720091  RH  032%=      5-min Rain = 0
KHO1 200630Z 17013KT 27/09 A3001 RMK A01 T02710091  RH  032%=      5-min Rain = 0
KHO1 200631Z 17014G19KT 27/09 A3001 RMK A01 T02710091  RH  032%=      5-min Rain = 0
KHO1 200632Z 16016KT 27/09 A3001 RMK A01 T02710092  RH  032%=      5-min Rain = 0
KHO1 200633Z 17014KT 27/09 A3001 RMK A01 T02710092  RH  032%=      5-min Rain = 0
KHO1 200634Z 17014KT 27/09 A3001 RMK A01 T02710092  RH  032%=      5-min Rain = 0
KHO1 200635Z 17013KT 27/09 A3001 RMK A01 T02710092  RH  032%=      5-min Rain = 0
KHO1 200636Z 17014KT 27/09 A3001 RMK A01 T02700092  RH  033%=      5-min Rain = 0
KHO1 200637Z 17014KT 27/09 A3001 RMK A01 T02700092  RH  033%=      5-min Rain = 0
KHO1 200638Z 17012KT 27/09 A3001 RMK A01 T02700092  RH  033%=      5-min Rain = 0
KHO1 200639Z 17014KT 27/09 A3001 RMK A01 T02690093  RH  033%=      5-min Rain = 0
KHO1 200640Z 17014KT 27/09 A3001 RMK A01 T02690093  RH  033%=      5-min Rain = 0
KHO1 200641Z 17014KT 27/09 A3001 RMK A01 T02690093  RH  033%=      5-min Rain = 0
KHO1 200642Z 17014KT 27/09 A3001 RMK A01 T02690093  RH  033%=      5-min Rain = 0
KHO1 200643Z 17013KT 27/09 A3001 RMK A01 T02690094  RH  033%=      5-min Rain = 0
KHO1 200644Z 17013KT 27/09 A3001 RMK A01 T02690094  RH  033%=      5-min Rain = 0
KHO1 200645Z 17015KT 27/09 A3001 RMK A01 T02690094  RH  033%=      5-min Rain = 0
KHO1 200646Z 17013KT 27/09 A3001 RMK A01 T02690094  RH  033%=      5-min Rain = 0
KHO1 200647Z 17012KT 27/09 A3001 RMK A01 T02680094  RH  033%=      5-min Rain = 0
KHO1 200648Z 17014KT 27/10 A3001 RMK A01 T02680095  RH  033%=      5-min Rain = 0
KHO1 200649Z 17015KT 27/10 A3001 RMK A01 T02690095  RH  033%=      5-min Rain = 0
KHO1 200650Z 17014KT 27/10 A3001 RMK A01 T02680095  RH  033%=      5-min Rain = 0
KHO1 200651Z 17013G18KT 27/10 A3001 RMK A01 T02680095  RH  034%=      5-min Rain = 0
KHO1 200652Z 17012KT 27/10 A3001 RMK A01 T02680095  RH  034%=      5-min Rain = 0
KHO1 200653Z 17012KT 27/10 A3001 RMK A01 T02670095  RH  034%=      5-min Rain = 0
KHO1 200654Z 17014KT 27/10 A3001 RMK A01 T02670095  RH  034%=      5-min Rain = 0
KHO1 200655Z 17014KT 27/10 A3001 RMK A01 T02670095  RH  034%=      5-min Rain = 0
KHO1 200656Z 17013KT 27/10 A3001 RMK A01 T02670095  RH  034%=      5-min Rain = 0
KHO1 200657Z 17013KT 27/10 A3001 RMK A01 T02670096  RH  034%=      5-min Rain = 0
KHO1 200658Z 17014KT 27/10 A3001 RMK A01 T02670096  RH  034%=      5-min Rain = 0
KHO1 200659Z 17014G19KT 27/10 A3001 RMK A01 T02670096  RH  034%=      5-min Rain = 0
KHO1 200700Z 17013KT 27/10 A3001 RMK A01 T02670096  RH  034%=      5-min Rain = 0
KHO1 200701Z 17013KT 27/10 A3001 RMK A01 T02660096  RH  034%=      5-min Rain = 0
KHO1 200702Z 17012KT 27/10 A3001 RMK A01 T02660096  RH  034%=      5-min Rain = 0
KHO1 200703Z 17014KT 27/10 A3001 RMK A01 T02660096  RH  034%=      5-min Rain = 0
KHO1 200704Z 17014KT 27/10 A3001 RMK A01 T02660096  RH  034%=      5-min Rain = 0
KHO1 200705Z 17013KT 27/10 A3001 RMK A01 T02660096  RH  034%=      5-min Rain = 0
KHO1 200706Z 17014KT 27/10 A3001 RMK A01 T02660096  RH  034%=      5-min Rain = 0
KHO1 200707Z 17013KT 27/10 A3001 RMK A01 T02650096  RH  035%=      5-min Rain = 0
KHO1 200708Z 17013KT 27/10 A3001 RMK A01 T02650097  RH  035%=      5-min Rain = 0
KHO1 200709Z 17015KT 27/10 A3001 RMK A01 T02650097  RH  035%=      5-min Rain = 0
KHO1 200710Z 17013KT 27/10 A3001 RMK A01 T02660097  RH  035%=      5-min Rain = 0
KHO1 200711Z 17014KT 27/10 A3001 RMK A01 T02650097  RH  035%=      5-min Rain = 0
KHO1 200712Z 17014KT 27/10 A3001 RMK A01 T02660097  RH  035%=      5-min Rain = 0
KHO1 200713Z 17012KT 27/10 A3001 RMK A01 T02650097  RH  035%=      5-min Rain = 0
KHO1 200714Z 17014KT 27/10 A3001 RMK A01 T02650097  RH  035%=      5-min Rain = 0
KHO1 200715Z 17014KT 27/10 A3001 RMK A01 T02650097  RH  035%=      5-min Rain = 0
KHO1 200716Z 17014KT 27/10 A3001 RMK A01 T02650097  RH  035%=      5-min Rain = 0
KHO1 200717Z 17012KT 27/10 A3001 RMK A01 T02650098  RH  035%=      5-min Rain = 0
KHO1 200718Z 17012KT 26/10 A3001 RMK A01 T02640098  RH  035%=      5-min Rain = 0
KHO1 200719Z 17012KT 26/10 A3001 RMK A01 T02640098  RH  035%=      5-min Rain = 0
KHO1 200720Z 17014KT 26/10 A3001 RMK A01 T02640099  RH  035%=      5-min Rain = 0
KHO1 200721Z 17014KT 27/10 A3001 RMK A01 T02650099  RH  035%=      5-min Rain = 0
KHO1 200722Z 17012KT 26/10 A3001 RMK A01 T02640099  RH  035%=      5-min Rain = 0
KHO1 200723Z 17016KT 26/10 A3001 RMK A01 T02640099  RH  035%=      5-min Rain = 0
KHO1 200724Z 17014KT 27/10 A3001 RMK A01 T02650099  RH  035%=      5-min Rain = 0
KHO1 200725Z 17011KT 26/10 A3001 RMK A01 T02640099  RH  035%=      5-min Rain = 0
KHO1 200726Z 17012KT 26/10 A3001 RMK A01 T02630099  RH  036%=      5-min Rain = 0
KHO1 200727Z 17013KT 26/10 A3001 RMK A01 T02630099  RH  036%=      5-min Rain = 0
KHO1 200728Z 17014KT 26/10 A30 RMK A01 T02630100  RH  036%=      5-min Rain = 0
KHO1 200729Z 17013KT 26/10 A30 RMK A01 T02630100  RH  036%=      5-min Rain = 0
KHO1 200730Z 17011KT 26/10 A3001 RMK A01 T02630100  RH  036%=      5-min Rain = 0
KHO1 200731Z 17012KT 26/10 A30 RMK A01 T02620100  RH  036%=      5-min Rain = 0
KHO1 200732Z 17014KT 26/10 A30 RMK A01 T02630100  RH  036%=      5-min Rain = 0
KHO1 200733Z 17012G19KT 26/10 A30 RMK A01 T02630100  RH  036%=      5-min Rain = 0
KHO1 200734Z 17015KT 26/10 A30 RMK A01 T02630100  RH  036%=      5-min Rain = 0
KHO1 200735Z 17013KT 26/10 A30 RMK A01 T02640100  RH  036%=      5-min Rain = 0
KHO1 200736Z 17012KT 26/10 A30 RMK A01 T02630100  RH  036%=      5-min Rain = 0
KHO1 200737Z 17012KT 26/10 A30 RMK A01 T02620100  RH  036%=      5-min Rain = 0
KHO1 200738Z 17015KT 26/10 A30 RMK A01 T02620100  RH  036%=      5-min Rain = 0
KHO1 200739Z 17013KT 26/10 A30 RMK A01 T02630100  RH  036%=      5-min Rain = 0
KHO1 200740Z 17013KT 26/10 A30 RMK A01 T02630100  RH  036%=      5-min Rain = 0
KHO1 200741Z 17013KT 26/10 A30 RMK A01 T02620100  RH  036%=      5-min Rain = 0
KHO1 200742Z 17015KT 26/10 A30 RMK A01 T02620101  RH  036%=      5-min Rain = 0
KHO1 200743Z 17015KT 26/10 A30 RMK A01 T02630101  RH  036%=      5-min Rain = 0
KHO1 200744Z 17014KT 26/10 A30 RMK A01 T02630101  RH  036%=      5-min Rain = 0
KHO1 200745Z 17016KT 26/10 A30 RMK A01 T02630101  RH  036%=      5-min Rain = 0
KHO1 200746Z 17012KT 26/10 A30 RMK A01 T02620101  RH  036%=      5-min Rain = 0
KHO1 200747Z 17011KT 26/10 A30 RMK A01 T02620101  RH  036%=      5-min Rain = 0
KHO1 200748Z 17011KT 26/10 A30 RMK A01 T02610101  RH  036%=      5-min Rain = 0
KHO1 200749Z 17012KT 26/10 A30 RMK A01 T02600101  RH  037%=      5-min Rain = 0
KHO1 200750Z 17013KT 26/10 A30 RMK A01 T02610101  RH  037%=      5-min Rain = 0
KHO1 200751Z 17012KT 26/10 A30 RMK A01 T02610101  RH  037%=      5-min Rain = 0
KHO1 200752Z 17011KT 26/10 A30 RMK A01 T02610101  RH  037%=      5-min Rain = 0
KHO1 200753Z 17012KT 26/10 A30 RMK A01 T02600101  RH  037%=      5-min Rain = 0
KHO1 200754Z 17011KT 26/10 A30 RMK A01 T02600101  RH  037%=      5-min Rain = 0
KHO1 200755Z 17011KT 26/10 A30 RMK A01 T02590101  RH  037%=      5-min Rain = 0
KHO1 200756Z 17011KT 26/10 A30 RMK A01 T02590101  RH  037%=      5-min Rain = 0
KHO1 200757Z 17013KT 26/10 A2999 RMK A01 T02590102  RH  037%=      5-min Rain = 0
KHO1 200758Z 17012KT 26/10 A2999 RMK A01 T02590102  RH  037%=      5-min Rain = 0
KHO1 200759Z 17010KT 26/10 A2999 RMK A01 T02590101  RH  037%=      5-min Rain = 0
KHO1 200800Z 17010KT 26/10 A2999 RMK A01 T02580102  RH  037%=      5-min Rain = 0
KHO1 200801Z 17012KT 26/10 A30 RMK A01 T02580102  RH  037%=      5-min Rain = 0
KHO1 200802Z 17013KT 26/10 A30 RMK A01 T02590102  RH  037%=      5-min Rain = 0
KHO1 200803Z 17010KT 26/10 A30 RMK A01 T02590102  RH  037%=      5-min Rain = 0
KHO1 200804Z 17011KT 26/10 A30 RMK A01 T02580102  RH  037%=      5-min Rain = 0
KHO1 200805Z 17012KT 26/10 A30 RMK A01 T02580102  RH  037%=      5-min Rain = 0
KHO1 200806Z 17012KT 26/10 A30 RMK A01 T02580102  RH  038%=      5-min Rain = 0
KHO1 200807Z 17012KT 26/10 A30 RMK A01 T02580102  RH  037%=      5-min Rain = 0
KHO1 200808Z 17010KT 26/10 A30 RMK A01 T02580102  RH  037%=      5-min Rain = 0
KHO1 200809Z 18012KT 26/10 A30 RMK A01 T02580102  RH  038%=      5-min Rain = 0
KHO1 200810Z 17014KT 26/10 A30 RMK A01 T02580102  RH  038%=      5-min Rain = 0
KHO1 200811Z 17014KT 26/10 A2999 RMK A01 T02580102  RH  037%=      5-min Rain = 0
KHO1 200812Z 18014KT 26/10 A30 RMK A01 T02590102  RH  037%=      5-min Rain = 0
KHO1 200813Z 17011KT 26/10 A30 RMK A01 T02580102  RH  037%=      5-min Rain = 0
KHO1 200814Z 17011KT 26/10 A30 RMK A01 T02580102  RH  038%=      5-min Rain = 0
KHO1 200815Z 17010KT 26/10 A30 RMK A01 T02570102  RH  038%=      5-min Rain = 0
KHO1 200816Z 17009KT 26/10 A30 RMK A01 T02560102  RH  038%=      5-min Rain = 0
KHO1 200817Z 17011KT 26/10 A30 RMK A01 T02560103  RH  038%=      5-min Rain = 0
KHO1 200818Z 17011KT 26/10 A30 RMK A01 T02560103  RH  038%=      5-min Rain = 0
KHO1 200819Z 18010KT 26/10 A30 RMK A01 T02560103  RH  038%=      5-min Rain = 0
KHO1 200820Z 18010KT 26/10 A30 RMK A01 T02560103  RH  038%=      5-min Rain = 0
KHO1 200821Z 18011KT 26/10 A30 RMK A01 T02550103  RH  038%=      5-min Rain = 0
KHO1 200822Z 18011KT 26/10 A30 RMK A01 T02550103  RH  038%=      5-min Rain = 0
KHO1 200823Z 17010KT 26/10 A30 RMK A01 T02560103  RH  038%=      5-min Rain = 0
KHO1 200824Z 18011KT 26/10 A30 RMK A01 T02550103  RH  038%=      5-min Rain = 0
KHO1 200825Z 17012KT 26/10 A30 RMK A01 T02550103  RH  038%=      5-min Rain = 0
KHO1 200826Z 17009KT 26/10 A30 RMK A01 T02550103  RH  038%=      5-min Rain = 0
KHO1 200827Z 18009KT 25/10 A30 RMK A01 T02540103  RH  039%=      5-min Rain = 0
KHO1 200828Z 18012KT 25/10 A2999 RMK A01 T02540103  RH  039%=      5-min Rain = 0
KHO1 200829Z 17012KT 25/10 A30 RMK A01 T02540103  RH  039%=      5-min Rain = 0
KHO1 200830Z 17012KT 26/10 A2999 RMK A01 T02550103  RH  038%=      5-min Rain = 0
KHO1 200831Z 18012KT 25/10 A2999 RMK A01 T02540103  RH  039%=      5-min Rain = 0
KHO1 200832Z 18010KT 25/10 A2999 RMK A01 T02540103  RH  039%=      5-min Rain = 0
KHO1 200833Z 18012KT 25/10 A2999 RMK A01 T02540103  RH  039%=      5-min Rain = 0
KHO1 200834Z 18013KT 25/10 A2999 RMK A01 T02540104  RH  039%=      5-min Rain = 0
KHO1 200835Z 18012KT 26/10 A2999 RMK A01 T02550104  RH  039%=      5-min Rain = 0
KHO1 200836Z 18011KT 25/10 A2999 RMK A01 T02540104  RH  039%=      5-min Rain = 0
KHO1 200837Z 18009KT 25/10 A2999 RMK A01 T02540104  RH  039%=      5-min Rain = 0
KHO1 200838Z 17009KT 25/10 A2999 RMK A01 T02530104  RH  039%=      5-min Rain = 0
KHO1 200839Z 18010KT 25/10 A2999 RMK A01 T02520104  RH  039%=      5-min Rain = 0
KHO1 200840Z 18011KT 25/10 A2999 RMK A01 T02520104  RH  039%=      5-min Rain = 0
KHO1 200841Z 17010KT 25/10 A2999 RMK A01 T02520104  RH  039%=      5-min Rain = 0
KHO1 200842Z 17011KT 25/11 A2999 RMK A01 T02520105  RH  039%=      5-min Rain = 0
KHO1 200843Z 17012KT 25/11 A2999 RMK A01 T02530105  RH  039%=      5-min Rain = 0
KHO1 200844Z 17011KT 25/11 A2999 RMK A01 T02530105  RH  039%=      5-min Rain = 0
KHO1 200845Z 17011KT 25/11 A2999 RMK A01 T02520105  RH  039%=      5-min Rain = 0
KHO1 200846Z 17010KT 25/11 A2999 RMK A01 T02520105  RH  039%=      5-min Rain = 0
KHO1 200847Z 18011KT 25/11 A2999 RMK A01 T02520105  RH  040%=      5-min Rain = 0
KHO1 200848Z 17013KT 25/11 A2999 RMK A01 T02520105  RH  040%=      5-min Rain = 0
KHO1 200849Z 17009KT 25/11 A2999 RMK A01 T02520105  RH  039%=      5-min Rain = 0
KHO1 200850Z 18011KT 25/11 A2999 RMK A01 T02520105  RH  040%=      5-min Rain = 0
KHO1 200851Z 17011KT 25/11 A2999 RMK A01 T02520105  RH  040%=      5-min Rain = 0
KHO1 200852Z 17011KT 25/11 A2999 RMK A01 T02520105  RH  040%=      5-min Rain = 0
KHO1 200853Z 18011KT 25/11 A2999 RMK A01 T02510105  RH  040%=      5-min Rain = 0
KHO1 200854Z 18011KT 25/11 A2999 RMK A01 T02510105  RH  040%=      5-min Rain = 0
KHO1 200855Z 17012KT 25/11 A2999 RMK A01 T02510106  RH  040%=      5-min Rain = 0
KHO1 200856Z 17011KT 25/11 A2998 RMK A01 T02510106  RH  040%=      5-min Rain = 0
KHO1 200857Z 18012KT 25/11 A2998 RMK A01 T02510106  RH  040%=      5-min Rain = 0
KHO1 200858Z 17013KT 25/11 A2998 RMK A01 T02510106  RH  040%=      5-min Rain = 0
KHO1 200859Z 18012KT 25/11 A2998 RMK A01 T02510106  RH  040%=      5-min Rain = 0
KHO1 200900Z 18012KT 25/11 A2998 RMK A01 T02510106  RH  040%=      5-min Rain = 0
KHO1 200901Z 18013KT 25/11 A2998 RMK A01 T02510106  RH  040%=      5-min Rain = 0
KHO1 200902Z 18012KT 25/11 A2998 RMK A01 T02510106  RH  040%=      5-min Rain = 0
KHO1 200903Z 18012KT 25/11 A2998 RMK A01 T02510106  RH  040%=      5-min Rain = 0
KHO1 200904Z 18012KT 25/11 A2998 RMK A01 T02510106  RH  040%=      5-min Rain = 0
KHO1 200905Z 18011KT 25/11 A2998 RMK A01 T02510106  RH  040%=      5-min Rain = 0
KHO1 200906Z 18013KT 25/11 A2998 RMK A01 T02510107  RH  040%=      5-min Rain = 0
KHO1 200907Z 18012KT 25/11 A2998 RMK A01 T02510107  RH  040%=      5-min Rain = 0
KHO1 200908Z 18011KT 25/11 A2998 RMK A01 T02510106  RH  040%=      5-min Rain = 0
KHO1 200909Z 18013KT 25/11 A2998 RMK A01 T02510107  RH  040%=      5-min Rain = 0
KHO1 200910Z 18011KT 25/11 A2998 RMK A01 T02510107  RH  040%=      5-min Rain = 0
KHO1 200911Z 18012KT 25/11 A2998 RMK A01 T02500107  RH  040%=      5-min Rain = 0
KHO1 200912Z 18012KT 25/11 A2998 RMK A01 T02500107  RH  041%=      5-min Rain = 0
KHO1 200913Z 18012KT 25/11 A2998 RMK A01 T02500107  RH  041%=      5-min Rain = 0
KHO1 200914Z 18011KT 25/11 A2998 RMK A01 T02500107  RH  041%=      5-min Rain = 0
KHO1 200915Z 18009KT 25/11 A2998 RMK A01 T02490107  RH  041%=      5-min Rain = 0
KHO1 200916Z 18011KT 25/11 A2998 RMK A01 T02490107  RH  041%=      5-min Rain = 0
KHO1 200917Z 18012KT 25/11 A2998 RMK A01 T02490107  RH  041%=      5-min Rain = 0
KHO1 200918Z 18011KT 25/11 A2998 RMK A01 T02490108  RH  041%=      5-min Rain = 0
KHO1 200919Z 18012KT 25/11 A2998 RMK A01 T02490108  RH  041%=      5-min Rain = 0
KHO1 200920Z 18011KT 25/11 A2999 RMK A01 T02490108  RH  041%=      5-min Rain = 0
KHO1 200921Z 18013KT 25/11 A2998 RMK A01 T02490108  RH  041%=      5-min Rain = 0
KHO1 200922Z 18010KT 25/11 A2999 RMK A01 T02490108  RH  041%=      5-min Rain = 0
KHO1 200923Z 18011KT 25/11 A2999 RMK A01 T02480108  RH  041%=      5-min Rain = 0
KHO1 200924Z 18011KT 25/11 A2999 RMK A01 T02480108  RH  041%=      5-min Rain = 0
KHO1 200925Z 18011KT 25/11 A2999 RMK A01 T02480108  RH  041%=      5-min Rain = 0
KHO1 200926Z 18012KT 25/11 A2999 RMK A01 T02480108  RH  041%=      5-min Rain = 0
KHO1 200927Z 18010KT 25/11 A2999 RMK A01 T02480108  RH  041%=      5-min Rain = 0
KHO1 200928Z 18010KT 25/11 A2999 RMK A01 T02480108  RH  041%=      5-min Rain = 0
KHO1 200929Z 17011KT 25/11 A2999 RMK A01 T02480108  RH  042%=      5-min Rain = 0
KHO1 200930Z 18011KT 25/11 A2999 RMK A01 T02470108  RH  042%=      5-min Rain = 0
KHO1 200931Z 18011KT 25/11 A2999 RMK A01 T02470109  RH  042%=      5-min Rain = 0
KHO1 200932Z 18010KT 25/11 A2999 RMK A01 T02470109  RH  042%=      5-min Rain = 0
KHO1 200933Z 18012KT 25/11 A2999 RMK A01 T02470109  RH  042%=      5-min Rain = 0
KHO1 200934Z 18011KT 25/11 A2999 RMK A01 T02470109  RH  042%=      5-min Rain = 0
KHO1 200935Z 17011KT 25/11 A2999 RMK A01 T02470109  RH  042%=      5-min Rain = 0
KHO1 200936Z 18012KT 25/11 A2999 RMK A01 T02470109  RH  042%=      5-min Rain = 0
KHO1 200937Z 18013KT 25/11 A2999 RMK A01 T02470109  RH  042%=      5-min Rain = 0
KHO1 200938Z 18011KT 25/11 A2998 RMK A01 T02470109  RH  042%=      5-min Rain = 0
KHO1 200939Z 17012KT 25/11 A2998 RMK A01 T02470109  RH  042%=      5-min Rain = 0
KHO1 200940Z 18012KT 25/11 A2999 RMK A01 T02470109  RH  042%=      5-min Rain = 0
KHO1 200941Z 17011KT 25/11 A2998 RMK A01 T02470109  RH  042%=      5-min Rain = 0
KHO1 200942Z 18011KT 25/11 A2998 RMK A01 T02460109  RH  042%=      5-min Rain = 0
KHO1 200943Z 18010KT 25/11 A2998 RMK A01 T02460110  RH  042%=      5-min Rain = 0
KHO1 200944Z 18010KT 25/11 A2998 RMK A01 T02460110  RH  042%=      5-min Rain = 0
KHO1 200945Z 18010KT 25/11 A2998 RMK A01 T02450110  RH  042%=      5-min Rain = 0
KHO1 200946Z 18010KT 25/11 A2998 RMK A01 T02450110  RH  043%=      5-min Rain = 0
KHO1 200947Z 18012KT 25/11 A2998 RMK A01 T02450110  RH  043%=      5-min Rain = 0
KHO1 200948Z 17011KT 25/11 A2998 RMK A01 T02450110  RH  043%=      5-min Rain = 0
KHO1 200949Z 18011KT 25/11 A2998 RMK A01 T02460110  RH  043%=      5-min Rain = 0
KHO1 200950Z 18011KT 25/11 A2998 RMK A01 T02460110  RH  043%=      5-min Rain = 0
KHO1 200951Z 18013KT 25/11 A2998 RMK A01 T02460111  RH  043%=      5-min Rain = 0
KHO1 200952Z 17010KT 25/11 A2998 RMK A01 T02460110  RH  043%=      5-min Rain = 0
KHO1 200953Z 17012KT 25/11 A2998 RMK A01 T02450111  RH  043%=      5-min Rain = 0
KHO1 200954Z 18012KT 25/11 A2998 RMK A01 T02450111  RH  043%=      5-min Rain = 0
KHO1 200955Z 18011KT 25/11 A2998 RMK A01 T02460111  RH  043%=      5-min Rain = 0
KHO1 200956Z 17012KT 25/11 A2998 RMK A01 T02450111  RH  043%=      5-min Rain = 0
KHO1 200957Z 18012KT 25/11 A2998 RMK A01 T02450111  RH  043%=      5-min Rain = 0
KHO1 200958Z 18012KT 25/11 A2998 RMK A01 T02450111  RH  043%=      5-min Rain = 0
KHO1 200959Z 18011KT 25/11 A2998 RMK A01 T02450111  RH  043%=      5-min Rain = 0
KHO1 201000Z 18011KT 25/11 A2998 RMK A01 T02450111  RH  043%=      5-min Rain = 0
KHO1 201001Z 18011KT 24/11 A2998 RMK A01 T02440111  RH  043%=      5-min Rain = 0
KHO1 201002Z 18012KT 24/11 A2998 RMK A01 T02440111  RH  043%=      5-min Rain = 0
KHO1 201003Z 18011KT 25/11 A2998 RMK A01 T02450112  RH  043%=      5-min Rain = 0
KHO1 201004Z 18011KT 24/11 A2998 RMK A01 T02440111  RH  043%=      5-min Rain = 0
KHO1 201005Z 18010KT 24/11 A2998 RMK A01 T02440112  RH  043%=      5-min Rain = 0
KHO1 201006Z 18012KT 24/11 A2998 RMK A01 T02440112  RH  044%=      5-min Rain = 0
KHO1 201007Z 18011KT 24/11 A2998 RMK A01 T02440112  RH  043%=      5-min Rain = 0
KHO1 201008Z 18010KT 24/11 A2998 RMK A01 T02440112  RH  044%=      5-min Rain = 0
KHO1 201009Z 18012KT 24/11 A2998 RMK A01 T02440112  RH  044%=      5-min Rain = 0
KHO1 201010Z 18012KT 24/11 A2998 RMK A01 T02440112  RH  044%=      5-min Rain = 0
KHO1 201011Z 18012KT 24/11 A2998 RMK A01 T02440112  RH  044%=      5-min Rain = 0
KHO1 201012Z 18011KT 24/11 A2998 RMK A01 T02440112  RH  044%=      5-min Rain = 0
KHO1 201013Z 18011KT 24/11 A2998 RMK A01 T02440112  RH  044%=      5-min Rain = 0
KHO1 201014Z 18011KT 24/11 A2998 RMK A01 T02430112  RH  044%=      5-min Rain = 0
KHO1 201015Z 18010KT 24/11 A2998 RMK A01 T02430113  RH  044%=      5-min Rain = 0
KHO1 201016Z 18009KT 24/11 A2998 RMK A01 T02430113  RH  044%=      5-min Rain = 0
KHO1 201017Z 18010KT 24/11 A2998 RMK A01 T02420113  RH  044%=      5-min Rain = 0
KHO1 201018Z 17011KT 24/11 A2998 RMK A01 T02420113  RH  044%=      5-min Rain = 0
KHO1 201019Z 17012KT 24/11 A2998 RMK A01 T02420113  RH  044%=      5-min Rain = 0
KHO1 201020Z 17011KT 24/11 A2998 RMK A01 T02420113  RH  044%=      5-min Rain = 0
KHO1 201021Z 18011KT 24/11 A2998 RMK A01 T02420113  RH  044%=      5-min Rain = 0
KHO1 201022Z 18012KT 24/11 A2998 RMK A01 T02420113  RH  044%=      5-min Rain = 0
KHO1 201023Z 17010KT 24/11 A2998 RMK A01 T02420113  RH  044%=      5-min Rain = 0
KHO1 201024Z 17009KT 24/11 A2998 RMK A01 T02410113  RH  045%=      5-min Rain = 0
KHO1 201025Z 18012KT 24/11 A2998 RMK A01 T02410113  RH  045%=      5-min Rain = 0
KHO1 201026Z 17010KT 24/11 A2998 RMK A01 T02410114  RH  045%=      5-min Rain = 0
KHO1 201027Z 18011KT 24/11 A2998 RMK A01 T02410114  RH  045%=      5-min Rain = 0
KHO1 201028Z 17010KT 24/11 A2998 RMK A01 T02410114  RH  045%=      5-min Rain = 0
KHO1 201029Z 17011KT 24/11 A2998 RMK A01 T02410114  RH  045%=      5-min Rain = 0
KHO1 201030Z 18011KT 24/11 A2998 RMK A01 T02410114  RH  045%=      5-min Rain = 0
KHO1 201031Z 17011KT 24/11 A2998 RMK A01 T02410114  RH  045%=      5-min Rain = 0
KHO1 201032Z 18012KT 24/11 A2998 RMK A01 T02410114  RH  045%=      5-min Rain = 0
KHO1 201033Z 18012KT 24/11 A2998 RMK A01 T02410114  RH  045%=      5-min Rain = 0
KHO1 201034Z 18012KT 24/11 A2998 RMK A01 T02410114  RH  045%=      5-min Rain = 0
KHO1 201035Z 18011KT 24/11 A2998 RMK A01 T02410114  RH  045%=      5-min Rain = 0
KHO1 201036Z 18013KT 24/12 A2998 RMK A01 T02410115  RH  045%=      5-min Rain = 0
KHO1 201037Z 18013KT 24/12 A2998 RMK A01 T02410115  RH  045%=      5-min Rain = 0
KHO1 201038Z 18012KT 24/12 A2998 RMK A01 T02410115  RH  045%=      5-min Rain = 0
KHO1 201039Z 18010KT 24/12 A2998 RMK A01 T02410115  RH  045%=      5-min Rain = 0
KHO1 201040Z 17010KT 24/12 A2998 RMK A01 T02400115  RH  045%=      5-min Rain = 0
KHO1 201041Z 18011KT 24/12 A2998 RMK A01 T02410115  RH  045%=      5-min Rain = 0
KHO1 201042Z 17011KT 24/12 A2998 RMK A01 T02400115  RH  045%=      5-min Rain = 0
KHO1 201043Z 17011KT 24/12 A2998 RMK A01 T02400115  RH  045%=      5-min Rain = 0
KHO1 201044Z 17011KT 24/12 A2998 RMK A01 T02410116  RH  045%=      5-min Rain = 0
KHO1 201045Z 18011KT 24/12 A2998 RMK A01 T02410116  RH  045%=      5-min Rain = 0
KHO1 201046Z 17011KT 24/12 A2999 RMK A01 T02410116  RH  045%=      5-min Rain = 0
KHO1 201047Z 18011KT 24/12 A2999 RMK A01 T02400116  RH  046%=      5-min Rain = 0
KHO1 201048Z 17011KT 24/12 A2999 RMK A01 T02400116  RH  046%=      5-min Rain = 0
KHO1 201049Z 17011KT 24/12 A2999 RMK A01 T02400116  RH  046%=      5-min Rain = 0
KHO1 201050Z 17010KT 24/12 A2999 RMK A01 T02400116  RH  046%=      5-min Rain = 0
KHO1 201051Z 18011KT 24/12 A2999 RMK A01 T02400116  RH  046%=      5-min Rain = 0
KHO1 201052Z 18010KT 24/12 A2999 RMK A01 T02400116  RH  046%=      5-min Rain = 0
KHO1 201053Z 17009KT 24/12 A2999 RMK A01 T02400116  RH  046%=      5-min Rain = 0
KHO1 201054Z 18010KT 24/12 A2999 RMK A01 T02390116  RH  046%=      5-min Rain = 0
KHO1 201055Z 17012KT 24/12 A2999 RMK A01 T02390117  RH  046%=      5-min Rain = 0
KHO1 201056Z 18011KT 24/12 A2999 RMK A01 T02400117  RH  046%=      5-min Rain = 0
KHO1 201057Z 18010KT 24/12 A2999 RMK A01 T02400117  RH  046%=      5-min Rain = 0
KHO1 201058Z 18012KT 24/12 A2999 RMK A01 T02400117  RH  046%=      5-min Rain = 0
KHO1 201059Z 18010KT 24/12 A2999 RMK A01 T02400117  RH  046%=      5-min Rain = 0
KHO1 201100Z 18011KT 24/12 A2999 RMK A01 T02390117  RH  046%=      5-min Rain = 0
KHO1 201101Z 18011KT 24/12 A2999 RMK A01 T02390117  RH  046%=      5-min Rain = 0
KHO1 201102Z 18011KT 24/12 A2999 RMK A01 T02390117  RH  046%=      5-min Rain = 0
KHO1 201103Z 18011KT 24/12 A2999 RMK A01 T02390117  RH  046%=      5-min Rain = 0
KHO1 201104Z 18011KT 24/12 A2999 RMK A01 T02390117  RH  046%=      5-min Rain = 0
KHO1 201105Z 18011KT 24/12 A2999 RMK A01 T02390117  RH  046%=      5-min Rain = 0
KHO1 201106Z 18011KT 24/12 A2999 RMK A01 T02390117  RH  046%=      5-min Rain = 0
KHO1 201107Z 18011KT 24/12 A2999 RMK A01 T02390117  RH  047%=      5-min Rain = 0
KHO1 201108Z 18009KT 24/12 A2999 RMK A01 T02380117  RH  047%=      5-min Rain = 0
KHO1 201109Z 18011KT 24/12 A2999 RMK A01 T02380117  RH  047%=      5-min Rain = 0
KHO1 201110Z 18011KT 24/12 A2999 RMK A01 T02380118  RH  047%=      5-min Rain = 0
KHO1 201111Z 18010KT 24/12 A2999 RMK A01 T02380118  RH  047%=      5-min Rain = 0
KHO1 201112Z 18011KT 24/12 A2999 RMK A01 T02380118  RH  047%=      5-min Rain = 0
KHO1 201113Z 18011KT 24/12 A2999 RMK A01 T02380118  RH  047%=      5-min Rain = 0
KHO1 201114Z 18010KT 24/12 A2999 RMK A01 T02380118  RH  047%=      5-min Rain = 0
KHO1 201115Z 18010KT 24/12 A2999 RMK A01 T02370118  RH  047%=      5-min Rain = 0
KHO1 201116Z 18011KT 24/12 A30 RMK A01 T02370118  RH  047%=      5-min Rain = 0
KHO1 201117Z 18011KT 24/12 A30 RMK A01 T02370118  RH  047%=      5-min Rain = 0
KHO1 201118Z 18010KT 24/12 A30 RMK A01 T02370118  RH  047%=      5-min Rain = 0
KHO1 201119Z 18010KT 24/12 A30 RMK A01 T02370118  RH  047%=      5-min Rain = 0
KHO1 201120Z 18010KT 24/12 A30 RMK A01 T02370118  RH  047%=      5-min Rain = 0
KHO1 201121Z 18012KT 24/12 A30 RMK A01 T02370119  RH  047%=      5-min Rain = 0
KHO1 201122Z 18011KT 24/12 A30 RMK A01 T02370118  RH  047%=      5-min Rain = 0
KHO1 201123Z 18010KT 24/12 A30 RMK A01 T02370118  RH  047%=      5-min Rain = 0
KHO1 201124Z 17010KT 24/12 A30 RMK A01 T02370118  RH  047%=      5-min Rain = 0
KHO1 201125Z 18011KT 24/12 A30 RMK A01 T02370119  RH  047%=      5-min Rain = 0
KHO1 201126Z 18011KT 24/12 A30 RMK A01 T02360119  RH  048%=      5-min Rain = 0
KHO1 201127Z 18008KT 24/12 A30 RMK A01 T02360119  RH  048%=      5-min Rain = 0
KHO1 201128Z 18010KT 24/12 A30 RMK A01 T02360119  RH  048%=      5-min Rain = 0
KHO1 201129Z 17009KT 24/12 A30 RMK A01 T02350119  RH  048%=      5-min Rain = 0
KHO1 201130Z 18010KT 24/12 A30 RMK A01 T02350119  RH  048%=      5-min Rain = 0
KHO1 201131Z 18009KT 24/12 A30 RMK A01 T02350119  RH  048%=      5-min Rain = 0
KHO1 201132Z 17008KT 24/12 A30 RMK A01 T02350119  RH  048%=      5-min Rain = 0
KHO1 201133Z 17008KT 24/12 A30 RMK A01 T02350119  RH  048%=      5-min Rain = 0
KHO1 201134Z 17008KT 23/12 A30 RMK A01 T02340119  RH  048%=      5-min Rain = 0
KHO1 201135Z 17009KT 23/12 A30 RMK A01 T02340119  RH  048%=      5-min Rain = 0
KHO1 201136Z 17009KT 23/12 A30 RMK A01 T02340119  RH  048%=      5-min Rain = 0
KHO1 201137Z 17008KT 23/12 A30 RMK A01 T02340119  RH  048%=      5-min Rain = 0
KHO1 201138Z 17008KT 23/12 A30 RMK A01 T02340119  RH  049%=      5-min Rain = 0
KHO1 201139Z 17008KT 23/12 A30 RMK A01 T02340119  RH  049%=      5-min Rain = 0
KHO1 201140Z 17008KT 23/12 A30 RMK A01 T02330119  RH  049%=      5-min Rain = 0
KHO1 201141Z 17008KT 23/12 A30 RMK A01 T02330119  RH  049%=      5-min Rain = 0
KHO1 201142Z 17008KT 23/12 A30 RMK A01 T02330120  RH  049%=      5-min Rain = 0
KHO1 201143Z 17008KT 23/12 A30 RMK A01 T02320120  RH  049%=      5-min Rain = 0
KHO1 201144Z 17008KT 23/12 A30 RMK A01 T02320120  RH  049%=      5-min Rain = 0
KHO1 201145Z 17008KT 23/12 A30 RMK A01 T02320120  RH  049%=      5-min Rain = 0
KHO1 201146Z 17008KT 23/12 A30 RMK A01 T02310120  RH  049%=      5-min Rain = 0
KHO1 201147Z 17008KT 23/12 A30 RMK A01 T02320120  RH  049%=      5-min Rain = 0
KHO1 201148Z 16008KT 23/12 A30 RMK A01 T02310120  RH  050%=      5-min Rain = 0
KHO1 201149Z 16008KT 23/12 A30 RMK A01 T02310120  RH  050%=      5-min Rain = 0
KHO1 201150Z 16007KT 23/12 A30 RMK A01 T02300120  RH  050%=      5-min Rain = 0
KHO1 201151Z 16008KT 23/12 A30 RMK A01 T02300120  RH  050%=      5-min Rain = 0
KHO1 201152Z 17007KT 23/12 A30 RMK A01 T02300120  RH  050%=      5-min Rain = 0
KHO1 201153Z 17007KT 23/12 A30 RMK A01 T02300120  RH  050%=      5-min Rain = 0
KHO1 201154Z 17007KT 23/12 A30 RMK A01 T02300120  RH  050%=      5-min Rain = 0
KHO1 201155Z 17008KT 23/12 A30 RMK A01 T02300120  RH  050%=      5-min Rain = 0
KHO1 201156Z 17009KT 23/12 A30 RMK A01 T02300121  RH  050%=      5-min Rain = 0
KHO1 201157Z 17009KT 23/12 A30 RMK A01 T02300121  RH  050%=      5-min Rain = 0
KHO1 201158Z 16010KT 23/12 A30 RMK A01 T02300121  RH  050%=      5-min Rain = 0
KHO1 201159Z 16009KT 23/12 A30 RMK A01 T02300121  RH  050%=      5-min Rain = 0
KHO1 201200Z 16009KT 23/12 A30 RMK A01 T02290121  RH  050%=      5-min Rain = 0
KHO1 201201Z 16009KT 23/12 A30 RMK A01 T02290121  RH  050%=      5-min Rain = 0
KHO1 201202Z 16008KT 23/12 A30 RMK A01 T02290121  RH  051%=      5-min Rain = 0
KHO1 201203Z 16009KT 23/12 A30 RMK A01 T02290121  RH  051%=      5-min Rain = 0
KHO1 201204Z 16008KT 23/12 A30 RMK A01 T02290121  RH  051%=      5-min Rain = 0
KHO1 201205Z 16009KT 23/12 A30 RMK A01 T02290121  RH  051%=      5-min Rain = 0
KHO1 201206Z 16009KT 23/12 A30 RMK A01 T02290122  RH  051%=      5-min Rain = 0
KHO1 201207Z 16009KT 23/12 A30 RMK A01 T02290122  RH  051%=      5-min Rain = 0
KHO1 201208Z 16009KT 23/12 A30 RMK A01 T02290122  RH  051%=      5-min Rain = 0
KHO1 201209Z 16008KT 23/12 A30 RMK A01 T02290122  RH  051%=      5-min Rain = 0
KHO1 201210Z 17010KT 23/12 A30 RMK A01 T02290122  RH  051%=      5-min Rain = 0
KHO1 201211Z 16010KT 23/12 A30 RMK A01 T02290122  RH  051%=      5-min Rain = 0
KHO1 201212Z 16009KT 23/12 A30 RMK A01 T02290122  RH  051%=      5-min Rain = 0
KHO1 201213Z 17009KT 23/12 A30 RMK A01 T02290122  RH  051%=      5-min Rain = 0
KHO1 201214Z 17009KT 23/12 A30 RMK A01 T02290122  RH  051%=      5-min Rain = 0
KHO1 201215Z 16009KT 23/12 A30 RMK A01 T02290122  RH  051%=      5-min Rain = 0
KHO1 201216Z 16009KT 23/12 A30 RMK A01 T02290122  RH  051%=      5-min Rain = 0
KHO1 201217Z 17008KT 23/12 A30 RMK A01 T02290122  RH  051%=      5-min Rain = 0
KHO1 201218Z 17009KT 23/12 A30 RMK A01 T02290122  RH  051%=      5-min Rain = 0
KHO1 201219Z 16009KT 23/12 A30 RMK A01 T02290122  RH  051%=      5-min Rain = 0
KHO1 201220Z 17008KT 23/12 A30 RMK A01 T02290122  RH  051%=      5-min Rain = 0
KHO1 201221Z 17008KT 23/12 A30 RMK A01 T02290123  RH  051%=      5-min Rain = 0
KHO1 201222Z 17007KT 23/12 A30 RMK A01 T02290123  RH  051%=      5-min Rain = 0
KHO1 201223Z 17009KT 23/12 A30 RMK A01 T02280123  RH  051%=      5-min Rain = 0
KHO1 201224Z 17008KT 23/12 A30 RMK A01 T02290123  RH  051%=      5-min Rain = 0
KHO1 201225Z 17007KT 23/12 A30 RMK A01 T02290123  RH  051%=      5-min Rain = 0
KHO1 201226Z 17007KT 23/12 A30 RMK A01 T02280123  RH  051%=      5-min Rain = 0
KHO1 201227Z 17010KT 23/12 A30 RMK A01 T02280123  RH  051%=      5-min Rain = 0
KHO1 201228Z 17007KT 23/12 A30 RMK A01 T02290124  RH  051%=      5-min Rain = 0
KHO1 201229Z 17008KT 23/12 A30 RMK A01 T02280124  RH  052%=      5-min Rain = 0
KHO1 201230Z 17007KT 23/12 A30 RMK A01 T02280124  RH  052%=      5-min Rain = 0
KHO1 201231Z 17008KT 23/12 A30 RMK A01 T02280124  RH  052%=      5-min Rain = 0
KHO1 201232Z 17010KT 23/12 A30 RMK A01 T02280124  RH  052%=      5-min Rain = 0
KHO1 201233Z 17008KT 23/12 A30 RMK A01 T02290124  RH  052%=      5-min Rain = 0
KHO1 201234Z 17010KT 23/12 A30 RMK A01 T02290124  RH  052%=      5-min Rain = 0
KHO1 201235Z 17008KT 23/13 A30 RMK A01 T02290125  RH  052%=      5-min Rain = 0
KHO1 201236Z 17009KT 23/12 A30 RMK A01 T02290124  RH  052%=      5-min Rain = 0
KHO1 201237Z 17010KT 23/13 A30 RMK A01 T02290125  RH  052%=      5-min Rain = 0
KHO1 201238Z 17008KT 23/13 A30 RMK A01 T02290125  RH  052%=      5-min Rain = 0
KHO1 201239Z 17009KT 23/13 A30 RMK A01 T02290125  RH  052%=      5-min Rain = 0
KHO1 201240Z 18009KT 23/13 A30 RMK A01 T02300125  RH  052%=      5-min Rain = 0
KHO1 201241Z 17010KT 23/13 A30 RMK A01 T02300125  RH  052%=      5-min Rain = 0
KHO1 201242Z 17010KT 23/13 A30 RMK A01 T02300125  RH  052%=      5-min Rain = 0
KHO1 201243Z 17009KT 23/13 A30 RMK A01 T02310125  RH  051%=      5-min Rain = 0
KHO1 201244Z 17008KT 23/13 A30 RMK A01 T02310126  RH  052%=      5-min Rain = 0
KHO1 201245Z 17010KT 23/13 A30 RMK A01 T02310125  RH  051%=      5-min Rain = 0
KHO1 201246Z 18010KT 23/13 A30 RMK A01 T02310125  RH  051%=      5-min Rain = 0
KHO1 201247Z 17009KT 23/13 A30 RMK A01 T02310126  RH  051%=      5-min Rain = 0
KHO1 201248Z 17009KT 23/13 A30 RMK A01 T02320126  RH  051%=      5-min Rain = 0
KHO1 201249Z 17009KT 23/13 A30 RMK A01 T02320126  RH  051%=      5-min Rain = 0
KHO1 201250Z 18009KT 23/13 A30 RMK A01 T02320126  RH  051%=      5-min Rain = 0
KHO1 201251Z 17010KT 23/13 A30 RMK A01 T02320126  RH  051%=      5-min Rain = 0
KHO1 201252Z 18011KT 23/13 A30 RMK A01 T02330126  RH  051%=      5-min Rain = 0
KHO1 201253Z 18010KT 23/13 A30 RMK A01 T02330126  RH  051%=      5-min Rain = 0
KHO1 201254Z 18008KT 23/13 A30 RMK A01 T02330126  RH  051%=      5-min Rain = 0
KHO1 201255Z 18009KT 23/13 A30 RMK A01 T02330127  RH  051%=      5-min Rain = 0
KHO1 201256Z 18011KT 23/13 A30 RMK A01 T02340127  RH  051%=      5-min Rain = 0
KHO1 201257Z 18008KT 23/13 A30 RMK A01 T02340127  RH  051%=      5-min Rain = 0
KHO1 201258Z 18010KT 24/13 A30 RMK A01 T02350127  RH  051%=      5-min Rain = 0
KHO1 201259Z 18010KT 24/13 A30 RMK A01 T02350127  RH  051%=      5-min Rain = 0
KHO1 201300Z 18011KT 24/13 A30 RMK A01 T02350127  RH  051%=      5-min Rain = 0
KHO1 201301Z 18010KT 24/13 A30 RMK A01 T02360128  RH  051%=      5-min Rain = 0
KHO1 201302Z 18012KT 24/13 A30 RMK A01 T02360127  RH  050%=      5-min Rain = 0
KHO1 201303Z 18009KT 24/13 A30 RMK A01 T02360128  RH  051%=      5-min Rain = 0
KHO1 201304Z 18008KT 24/13 A30 RMK A01 T02370128  RH  050%=      5-min Rain = 0
KHO1 201305Z 17010G15KT 24/13 A30 RMK A01 T02370128  RH  050%=      5-min Rain = 0
KHO1 201306Z 18011KT 24/13 A30 RMK A01 T02370128  RH  050%=      5-min Rain = 0
KHO1 201307Z 18011KT 24/13 A30 RMK A01 T02370128  RH  050%=      5-min Rain = 0
KHO1 201308Z 18011KT 24/13 A30 RMK A01 T02380128  RH  050%=      5-min Rain = 0
KHO1 201309Z 18013KT 24/13 A30 RMK A01 T02380128  RH  050%=      5-min Rain = 0
KHO1 201310Z 18012KT 24/13 A30 RMK A01 T02380128  RH  050%=      5-min Rain = 0
KHO1 201311Z 18011KT 24/13 A30 RMK A01 T02380129  RH  050%=      5-min Rain = 0
KHO1 201312Z 18012KT 24/13 A30 RMK A01 T02390128  RH  050%=      5-min Rain = 0
KHO1 201313Z 18010KT 24/13 A30 RMK A01 T02390129  RH  050%=      5-min Rain = 0
KHO1 201314Z 18011KT 24/13 A30 RMK A01 T02400129  RH  050%=      5-min Rain = 0
KHO1 201315Z 18012KT 24/13 A30 RMK A01 T02400129  RH  050%=      5-min Rain = 0
KHO1 201316Z 18011KT 24/13 A30 RMK A01 T02400129  RH  050%=      5-min Rain = 0
KHO1 201317Z 18014KT 24/13 A30 RMK A01 T02400128  RH  050%=      5-min Rain = 0
KHO1 201318Z 18013KT 24/13 A30 RMK A01 T02400129  RH  050%=      5-min Rain = 0
KHO1 201319Z 18013KT 24/13 A30 RMK A01 T02410129  RH  050%=      5-min Rain = 0
KHO1 201320Z 18013KT 24/13 A30 RMK A01 T02410128  RH  049%=      5-min Rain = 0
KHO1 201321Z 17013KT 24/13 A30 RMK A01 T02410129  RH  050%=      5-min Rain = 0
KHO1 201322Z 18012KT 24/13 A30 RMK A01 T02410129  RH  050%=      5-min Rain = 0
KHO1 201323Z 18014KT 24/13 A30 RMK A01 T02420129  RH  049%=      5-min Rain = 0
KHO1 201324Z 18014KT 24/13 A30 RMK A01 T02420129  RH  049%=      5-min Rain = 0
KHO1 201325Z 18012KT 24/13 A30 RMK A01 T02420130  RH  049%=      5-min Rain = 0
KHO1 201326Z 17011KT 24/13 A30 RMK A01 T02430130  RH  049%=      5-min Rain = 0
KHO1 201327Z 18012KT 24/13 A30 RMK A01 T02440130  RH  049%=      5-min Rain = 0
KHO1 201328Z 17013KT 24/13 A30 RMK A01 T02440129  RH  049%=      5-min Rain = 0
KHO1 201329Z 18012KT 24/13 A30 RMK A01 T02440130  RH  049%=      5-min Rain = 0
KHO1 201330Z 18012KT 24/13 A30 RMK A01 T02440130  RH  049%=      5-min Rain = 0
KHO1 201331Z 18013KT 25/13 A30 RMK A01 T02450130  RH  049%=      5-min Rain = 0
KHO1 201332Z 18012KT 25/13 A30 RMK A01 T02450130  RH  049%=      5-min Rain = 0
KHO1 201333Z 18012KT 25/13 A30 RMK A01 T02460129  RH  048%=      5-min Rain = 0
KHO1 201334Z 18014G19KT 25/13 A30 RMK A01 T02460130  RH  048%=      5-min Rain = 0
KHO1 201335Z 18015KT 25/13 A30 RMK A01 T02460129  RH  048%=      5-min Rain = 0
KHO1 201336Z 18014KT 25/13 A30 RMK A01 T02460129  RH  048%=      5-min Rain = 0
KHO1 201337Z 18012KT 25/13 A30 RMK A01 T02460129  RH  048%=      5-min Rain = 0
KHO1 201338Z 18012KT 25/13 A30 RMK A01 T02470130  RH  048%=      5-min Rain = 0
KHO1 201339Z 18012KT 25/13 A30 RMK A01 T02480130  RH  048%=      5-min Rain = 0
KHO1 201340Z 18012KT 25/13 A30 RMK A01 T02480130  RH  048%=      5-min Rain = 0
KHO1 201341Z 18010KT 25/13 A30 RMK A01 T02500131  RH  048%=      5-min Rain = 0
KHO1 201342Z 18011G16KT 25/13 A30 RMK A01 T02510131  RH  047%=      5-min Rain = 0
KHO1 201343Z 18012KT 25/13 A30 RMK A01 T02510129  RH  047%=      5-min Rain = 0
KHO1 201344Z 18012KT 25/13 A30 RMK A01 T02510130  RH  047%=      5-min Rain = 0
KHO1 201345Z 18011KT 25/13 A30 RMK A01 T02510130  RH  047%=      5-min Rain = 0
KHO1 201346Z 18012KT 25/13 A30 RMK A01 T02510129  RH  047%=      5-min Rain = 0
KHO1 201347Z 18013KT 25/13 A30 RMK A01 T02510129  RH  047%=      5-min Rain = 0
KHO1 201348Z 18011KT 25/13 A30 RMK A01 T02520130  RH  047%=      5-min Rain = 0
KHO1 201349Z 18014KT 25/13 A30 RMK A01 T02530129  RH  046%=      5-min Rain = 0
KHO1 201350Z 18013KT 25/13 A30 RMK A01 T02530130  RH  046%=      5-min Rain = 0
KHO1 201351Z 18011KT 25/13 A30 RMK A01 T02540130  RH  046%=      5-min Rain = 0
KHO1 201352Z 18012KT 25/13 A30 RMK A01 T02540130  RH  046%=      5-min Rain = 0
KHO1 201353Z 18015KT 25/13 A30 RMK A01 T02540129  RH  046%=      5-min Rain = 0
KHO1 201354Z 18013KT 25/13 A30 RMK A01 T02540129  RH  046%=      5-min Rain = 0
KHO1 201355Z 18013KT 25/13 A30 RMK A01 T02540129  RH  046%=      5-min Rain = 0
KHO1 201356Z 18012KT 26/13 A30 RMK A01 T02550130  RH  046%=      5-min Rain = 0
KHO1 201357Z 17013KT 26/13 A30 RMK A01 T02560130  RH  045%=      5-min Rain = 0
KHO1 201358Z 18013KT 26/13 A30 RMK A01 T02560129  RH  045%=      5-min Rain = 0
KHO1 201359Z 18013KT 26/13 A30 RMK A01 T02560129  RH  045%=      5-min Rain = 0
KHO1 201400Z 19013KT 26/13 A3001 RMK A01 T02560129  RH  045%=      5-min Rain = 0
KHO1 201401Z 19014KT 26/13 A30 RMK A01 T02570129  RH  045%=      5-min Rain = 0
KHO1 201402Z 18012KT 26/13 A30 RMK A01 T02570130  RH  045%=      5-min Rain = 0
KHO1 201403Z 19013KT 26/13 A3001 RMK A01 T02590130  RH  045%=      5-min Rain = 0
KHO1 201404Z 19012KT 26/13 A30 RMK A01 T02600130  RH  044%=      5-min Rain = 0
KHO1 201405Z 18013KT 26/13 A3001 RMK A01 T02600129  RH  044%=      5-min Rain = 0
KHO1 201406Z 18011KT 26/13 A3001 RMK A01 T02610130  RH  044%=      5-min Rain = 0
KHO1 201407Z 18013KT 26/13 A3001 RMK A01 T02620130  RH  044%=      5-min Rain = 0
KHO1 201408Z 18016KT 26/13 A3001 RMK A01 T02600128  RH  044%=      5-min Rain = 0
KHO1 201409Z 18014KT 26/13 A3001 RMK A01 T02590129  RH  044%=      5-min Rain = 0
KHO1 201410Z 18013KT 26/13 A3001 RMK A01 T02590130  RH  045%=      5-min Rain = 0
KHO1 201411Z 19014KT 26/13 A3001 RMK A01 T02590130  RH  045%=      5-min Rain = 0
KHO1 201412Z 18012KT 26/13 A3001 RMK A01 T02610131  RH  045%=      5-min Rain = 0
KHO1 201413Z 18013KT 26/13 A3001 RMK A01 T02620130  RH  044%=      5-min Rain = 0
KHO1 201414Z 18014KT 26/13 A3001 RMK A01 T02620130  RH  044%=      5-min Rain = 0
KHO1 201415Z 18012KT 26/13 A3001 RMK A01 T02620130  RH  044%=      5-min Rain = 0
KHO1 201416Z 18014KT 26/13 A3001 RMK A01 T02620129  RH  044%=      5-min Rain = 0
KHO1 201417Z 19012KT 26/13 A3001 RMK A01 T02620130  RH  044%=      5-min Rain = 0
KHO1 201418Z 18010KT 26/13 A3001 RMK A01 T02640131  RH  044%=      5-min Rain = 0
KHO1 201419Z 19012KT 27/13 A3001 RMK A01 T02660132  RH  043%=      5-min Rain = 0
KHO1 201420Z 18014KT 27/13 A3001 RMK A01 T02650129  RH  043%=      5-min Rain = 0
KHO1 201421Z 18014KT 26/13 A3001 RMK A01 T02640129  RH  043%=      5-min Rain = 0
KHO1 201422Z 19011KT 27/13 A3001 RMK A01 T02650131  RH  043%=      5-min Rain = 0
KHO1 201423Z 18011KT 27/13 A3001 RMK A01 T02660131  RH  043%=      5-min Rain = 0
KHO1 201424Z 18010KT 27/13 A3001 RMK A01 T02660131  RH  043%=      5-min Rain = 0
KHO1 201425Z 18012KT 27/13 A3001 RMK A01 T02680130  RH  043%=      5-min Rain = 0
KHO1 201426Z 18015KT 27/13 A3001 RMK A01 T02660128  RH  042%=      5-min Rain = 0
KHO1 201427Z 19011KT 27/13 A3001 RMK A01 T02660130  RH  043%=      5-min Rain = 0
KHO1 201428Z 18013KT 27/13 A3001 RMK A01 T02670130  RH  043%=      5-min Rain = 0
KHO1 201429Z 18013KT 27/13 A3001 RMK A01 T02670130  RH  043%=      5-min Rain = 0
KHO1 201430Z 18011KT 27/13 A3001 RMK A01 T02680131  RH  043%=      5-min Rain = 0
KHO1 201431Z 18011KT 27/13 A3001 RMK A01 T02690131  RH  042%=      5-min Rain = 0
KHO1 201432Z 18012KT 27/13 A3001 RMK A01 T02690130  RH  042%=      5-min Rain = 0
KHO1 201433Z 18012KT 27/13 A3001 RMK A01 T02690130  RH  042%=      5-min Rain = 0
KHO1 201434Z 18011KT 27/13 A3001 RMK A01 T02690130  RH  042%=      5-min Rain = 0
KHO1 201435Z 18014KT 27/13 A3001 RMK A01 T02690129  RH  042%=      5-min Rain = 0
KHO1 201436Z 19011KT 27/13 A3001 RMK A01 T02690131  RH  042%=      5-min Rain = 0
KHO1 201437Z 18011KT 27/13 A3001 RMK A01 T02710131  RH  042%=      5-min Rain = 0
KHO1 201438Z 18011G16KT 27/13 A3001 RMK A01 T02720131  RH  042%=      5-min Rain = 0
KHO1 201439Z 18013KT 27/13 A3001 RMK A01 T02730130  RH  041%=      5-min Rain = 0
KHO1 201440Z 17012KT 27/13 A3001 RMK A01 T02720129  RH  041%=      5-min Rain = 0
KHO1 201441Z 18010KT 27/13 A3001 RMK A01 T02730132  RH  042%=      5-min Rain = 0
KHO1 201442Z 18012KT 27/13 A3001 RMK A01 T02740129  RH  041%=      5-min Rain = 0
KHO1 201443Z 18013KT 27/13 A3001 RMK A01 T02730129  RH  041%=      5-min Rain = 0
KHO1 201444Z 18012KT 27/13 A3001 RMK A01 T02740130  RH  041%=      5-min Rain = 0
KHO1 201445Z 18010KT 28/13 A3001 RMK A01 T02760131  RH  041%=      5-min Rain = 0
KHO1 201446Z 18011KT 28/13 A3001 RMK A01 T02780129  RH  040%=      5-min Rain = 0
KHO1 201447Z 18008KT 28/13 A3001 RMK A01 T02780130  RH  040%=      5-min Rain = 0
KHO1 201448Z 19010KT 28/13 A3001 RMK A01 T02780130  RH  040%=      5-min Rain = 0
KHO1 201449Z 18009KT 28/13 A3001 RMK A01 T02790130  RH  040%=      5-min Rain = 0
KHO1 201450Z 18011KT 28/13 A3001 RMK A01 T02800130  RH  039%=      5-min Rain = 0
KHO1 201451Z 18012KT 28/13 A3001 RMK A01 T02810129  RH  039%=      5-min Rain = 0
KHO1 201452Z 19014KT 28/13 A3001 RMK A01 T02810127  RH  038%=      5-min Rain = 0
KHO1 201453Z 20012KT 28/13 A3001 RMK A01 T02820127  RH  038%=      5-min Rain = 0
KHO1 201454Z 20013KT 28/13 A3001 RMK A01 T02830126  RH  038%=      5-min Rain = 0
KHO1 201455Z 18011KT 28/13 A3001 RMK A01 T02840127  RH  038%=      5-min Rain = 0
KHO1 201456Z 18012KT 28/13 A3001 RMK A01 T02840127  RH  038%=      5-min Rain = 0
KHO1 201457Z 19012KT 29/13 A3001 RMK A01 T02850128  RH  038%=      5-min Rain = 0
KHO1 201458Z 19013KT 28/13 A3001 RMK A01 T02840126  RH  038%=      5-min Rain = 0
KHO1 201459Z 18013KT 28/13 A3001 RMK A01 T02830125  RH  038%=      5-min Rain = 0
KHO1 201500Z 19009KT 28/13 A3001 RMK A01 T02840128  RH  038%=      5-min Rain = 0
KHO1 201501Z 19010KT 29/13 A3001 RMK A01 T02870128  RH  038%=      5-min Rain = 0
KHO1 201502Z 19010KT 29/13 A3001 RMK A01 T02870129  RH  038%=      5-min Rain = 0
KHO1 201503Z 18011KT 29/13 A3001 RMK A01 T02880128  RH  037%=      5-min Rain = 0
KHO1 201504Z 18011KT 29/13 A3001 RMK A01 T02870126  RH  037%=      5-min Rain = 0
KHO1 201505Z 19012KT 29/13 A3001 RMK A01 T02870127  RH  037%=      5-min Rain = 0
KHO1 201506Z 19010KT 29/13 A3001 RMK A01 T02890125  RH  036%=      5-min Rain = 0
KHO1 201507Z 19011KT 29/13 A3001 RMK A01 T02900126  RH  036%=      5-min Rain = 0
KHO1 201508Z 19011KT 29/13 A3001 RMK A01 T02900126  RH  036%=      5-min Rain = 0
KHO1 201509Z 19011KT 29/13 A3001 RMK A01 T02900125  RH  036%=      5-min Rain = 0
KHO1 201510Z 19011KT 29/13 A3001 RMK A01 T02900125  RH  036%=      5-min Rain = 0
KHO1 201511Z 19010KT 29/13 A3001 RMK A01 T02890126  RH  036%=      5-min Rain = 0
KHO1 201512Z 19012KT 29/13 A3001 RMK A01 T02880125  RH  037%=      5-min Rain = 0
KHO1 201513Z 19010KT 29/13 A3001 RMK A01 T02890127  RH  037%=      5-min Rain = 0
KHO1 201514Z 20011KT 29/13 A3001 RMK A01 T02920127  RH  036%=      5-min Rain = 0
KHO1 201515Z 20009KT 29/13 A3001 RMK A01 T02940127  RH  036%=      5-min Rain = 0
KHO1 201516Z 19010KT 29/13 A3001 RMK A01 T02940125  RH  035%=      5-min Rain = 0
KHO1 201517Z 18012KT 29/12 A3001 RMK A01 T02930124  RH  035%=      5-min Rain = 0
KHO1 201518Z 18013KT 29/12 A3001 RMK A01 T02930124  RH  035%=      5-min Rain = 0
KHO1 201519Z 19010KT 29/13 A3001 RMK A01 T02930126  RH  036%=      5-min Rain = 0
KHO1 201520Z 19010KT 30/13 A3001 RMK A01 T02950126  RH  035%=      5-min Rain = 0
KHO1 201521Z 19010KT 29/13 A3001 RMK A01 T02930125  RH  036%=      5-min Rain = 0
KHO1 201522Z 20011KT 29/12 A3001 RMK A01 T02930123  RH  035%=      5-min Rain = 0
KHO1 201523Z 21010KT 30/12 A3001 RMK A01 T02950121  RH  034%=      5-min Rain = 0
KHO1 201524Z 20010KT 30/12 A3001 RMK A01 T02960124  RH  035%=      5-min Rain = 0
KHO1 201525Z 20012KT 30/12 A3001 RMK A01 T02970121  RH  034%=      5-min Rain = 0
KHO1 201526Z 19013KT 30/12 A3001 RMK A01 T02980121  RH  034%=      5-min Rain = 0
KHO1 201527Z 20011KT 30/12 A3001 RMK A01 T03000122  RH  034%=      5-min Rain = 0
KHO1 201528Z 20010KT 30/12 A3001 RMK A01 T02980121  RH  034%=      5-min Rain = 0
KHO1 201529Z 19011KT 30/12 A3001 RMK A01 T02980122  RH  034%=      5-min Rain = 0
KHO1 201530Z 19010KT 30/12 A3001 RMK A01 T03000123  RH  034%=      5-min Rain = 0
KHO1 201531Z 20009KT 30/12 A3001 RMK A01 T03030122  RH  033%=      5-min Rain = 0
KHO1 201532Z 20008KT 30/13 A3001 RMK A01 T03040125  RH  033%=      5-min Rain = 0
KHO1 201533Z 19008KT 31/13 A3001 RMK A01 T03070125  RH  033%=      5-min Rain = 0
KHO1 201534Z 20010G15KT 31/12 A3001 RMK A01 T03080123  RH  032%=      5-min Rain = 0
KHO1 201535Z 20010KT 31/12 A3001 RMK A01 T03070117  RH  031%=      5-min Rain = 0
KHO1 201536Z 21010KT 31/12 A3001 RMK A01 T03060121  RH  032%=      5-min Rain = 0
KHO1 201537Z 20009KT 31/12 A3001 RMK A01 T03070122  RH  032%=      5-min Rain = 0
KHO1 201538Z 20007KT 31/12 A3001 RMK A01 T03100121  RH  031%=      5-min Rain = 0
KHO1 201539Z 19010KT 31/12 A3001 RMK A01 T03090119  RH  031%=      5-min Rain = 0
KHO1 201540Z 20009KT 31/12 A3001 RMK A01 T03080120  RH  032%=      5-min Rain = 0
KHO1 201541Z 20009KT 31/12 A3001 RMK A01 T03080121  RH  032%=      5-min Rain = 0
KHO1 201542Z 19010KT 31/12 A3001 RMK A01 T03090120  RH  031%=      5-min Rain = 0
KHO1 201543Z 20012KT 31/12 A3001 RMK A01 T03090119  RH  031%=      5-min Rain = 0
KHO1 201544Z 20011KT 31/12 A3001 RMK A01 T03100118  RH  031%=      5-min Rain = 0
KHO1 201545Z 21010KT 31/12 A3001 RMK A01 T03080118  RH  031%=      5-min Rain = 0
KHO1 201546Z 21009KT 31/12 A3001 RMK A01 T03090120  RH  031%=      5-min Rain = 0
KHO1 201547Z 21011KT 31/12 A3001 RMK A01 T03090120  RH  031%=      5-min Rain = 0
KHO1 201548Z 21011KT 31/12 A3001 RMK A01 T03100117  RH  031%=      5-min Rain = 0
KHO1 201549Z 22010KT 31/12 A3001 RMK A01 T03080116  RH  031%=      5-min Rain = 0
KHO1 201550Z 20012KT 31/12 A3001 RMK A01 T03100118  RH  031%=      5-min Rain = 0
KHO1 201551Z 21013KT 31/12 A3001 RMK A01 T03110117  RH  030%=      5-min Rain = 0
KHO1 201552Z 19010KT 31/12 A3001 RMK A01 T03120116  RH  030%=      5-min Rain = 0
KHO1 201553Z 20009KT 31/12 A3001 RMK A01 T03130116  RH  030%=      5-min Rain = 0
KHO1 201554Z 21008KT 31/12 A3001 RMK A01 T03110115  RH  030%=      5-min Rain = 0
KHO1 201555Z 20011KT 31/12 A3001 RMK A01 T03120118  RH  030%=      5-min Rain = 0
KHO1 201556Z 19010KT 31/12 A3001 RMK A01 T03120115  RH  030%=      5-min Rain = 0
KHO1 201557Z 18009KT 31/12 A3001 RMK A01 T03110115  RH  030%=      5-min Rain = 0
KHO1 201558Z 20012KT 31/11 A3001 RMK A01 T03130114  RH  030%=      5-min Rain = 0
KHO1 201559Z 21012KT 31/11 A3001 RMK A01 T03140113  RH  029%=      5-min Rain = 0
KHO1 201600Z 22010KT 32/11 A3001 RMK A01 T03150113  RH  029%=      5-min Rain = 0
KHO1 201601Z 22009KT 31/11 A3001 RMK A01 T03130113  RH  029%=      5-min Rain = 0
KHO1 201602Z 21012KT 31/12 A3001 RMK A01 T03140116  RH  030%=      5-min Rain = 0
KHO1 201603Z 21009KT 32/12 A3001 RMK A01 T03150116  RH  030%=      5-min Rain = 0
KHO1 201604Z 20007KT 32/12 A3001 RMK A01 T03190119  RH  030%=      5-min Rain = 0
KHO1 201605Z 21011KT 32/12 A3001 RMK A01 T03220118  RH  029%=      5-min Rain = 0
KHO1 201606Z 20011KT 32/11 A3001 RMK A01 T03210113  RH  028%=      5-min Rain = 0
KHO1 201607Z 21009KT 32/11 A3001 RMK A01 T03190113  RH  028%=      5-min Rain = 0
KHO1 201608Z 20008KT 32/12 A3001 RMK A01 T03190115  RH  029%=      5-min Rain = 0
KHO1 201609Z 19009KT 32/11 A3001 RMK A01 T03180112  RH  028%=      5-min Rain = 0
KHO1 201610Z 20010KT 32/12 A3001 RMK A01 T03190115  RH  029%=      5-min Rain = 0
KHO1 201611Z 21008KT 32/11 A3001 RMK A01 T03200113  RH  028%=      5-min Rain = 0
KHO1 201612Z 18007G13KT 32/12 A3001 RMK A01 T03200116  RH  029%=      5-min Rain = 0
KHO1 201613Z 19011KT 32/12 A3001 RMK A01 T03230115  RH  028%=      5-min Rain = 0
KHO1 201614Z 20012KT 32/11 A3001 RMK A01 T03210113  RH  028%=      5-min Rain = 0
KHO1 201615Z 20010KT 32/11 A3001 RMK A01 T03200113  RH  028%=      5-min Rain = 0
KHO1 201616Z 21009KT 32/11 A3001 RMK A01 T03210113  RH  028%=      5-min Rain = 0
KHO1 201617Z 21008KT 32/11 A3001 RMK A01 T03190113  RH  028%=      5-min Rain = 0
KHO1 201618Z 19009KT 32/12 A3001 RMK A01 T03230116  RH  028%=      5-min Rain = 0
KHO1 201619Z 18008KT 33/12 A3001 RMK A01 T03250115  RH  028%=      5-min Rain = 0
KHO1 201620Z 18012KT 33/12 A3001 RMK A01 T03260115  RH  027%=      5-min Rain = 0
KHO1 201621Z 19011KT 33/11 A3001 RMK A01 T03250113  RH  027%=      5-min Rain = 0
KHO1 201622Z 21009KT 33/11 A3001 RMK A01 T03250110  RH  027%=      5-min Rain = 0
KHO1 201623Z 21008KT 33/11 A3001 RMK A01 T03250111  RH  027%=      5-min Rain = 0
KHO1 201624Z 21011KT 33/11 A3001 RMK A01 T03270112  RH  027%=      5-min Rain = 0
KHO1 201625Z 21011KT 33/11 A3001 RMK A01 T03260110  RH  027%=      5-min Rain = 0
KHO1 201626Z 21009KT 32/11 A3001 RMK A01 T03240107  RH  027%=      5-min Rain = 0
KHO1 201627Z 21007KT 32/11 A30 RMK A01 T03230108  RH  027%=      5-min Rain = 0
KHO1 201628Z 19008KT 32/11 A30 RMK A01 T03240110  RH  027%=      5-min Rain = 0
KHO1 201629Z 19010KT 33/11 A30 RMK A01 T03280114  RH  027%=      5-min Rain = 0
KHO1 201630Z 19010G17KT 33/11 A30 RMK A01 T03280112  RH  027%=      5-min Rain = 0
KHO1 201631Z 20011KT 33/11 A30 RMK A01 T03300112  RH  026%=      5-min Rain = 0
KHO1 201632Z 20009KT 33/11 A30 RMK A01 T03270112  RH  027%=      5-min Rain = 0
KHO1 201633Z 18011KT 33/11 A30 RMK A01 T03280110  RH  026%=      5-min Rain = 0
KHO1 201634Z 19009KT 33/11 A30 RMK A01 T03280111  RH  027%=      5-min Rain = 0
KHO1 201635Z 19008KT 33/11 A3001 RMK A01 T03290113  RH  027%=      5-min Rain = 0
KHO1 201636Z 19012KT 33/11 A3001 RMK A01 T03320113  RH  026%=      5-min Rain = 0
KHO1 201637Z 19008KT 33/11 A3001 RMK A01 T03290111  RH  026%=      5-min Rain = 0
KHO1 201638Z 23012KT 33/11 A3001 RMK A01 T03310109  RH  026%=      5-min Rain = 0
KHO1 201639Z 22007KT 33/11 A3001 RMK A01 T03320107  RH  025%=      5-min Rain = 0
KHO1 201640Z 20006KT 33/11 A3001 RMK A01 T03330110  RH  026%=      5-min Rain = 0
KHO1 201641Z 20008KT 33/11 A3001 RMK A01 T03340110  RH  026%=      5-min Rain = 0
KHO1 201642Z 23009KT 33/11 A3001 RMK A01 T03330109  RH  026%=      5-min Rain = 0
KHO1 201643Z 22012KT 33/11 A3001 RMK A01 T03340109  RH  025%=      5-min Rain = 0
KHO1 201644Z 21010KT 33/11 A3001 RMK A01 T03340106  RH  025%=      5-min Rain = 0
KHO1 201645Z 22008KT 34/11 A3001 RMK A01 T03350107  RH  025%=      5-min Rain = 0
KHO1 201646Z 20006G11KT 33/11 A3001 RMK A01 T03340108  RH  025%=      5-min Rain = 0
KHO1 201647Z 18008KT 34/11 A30 RMK A01 T03360109  RH  025%=      5-min Rain = 0
KHO1 201648Z 20008KT 33/11 A3001 RMK A01 T03330109  RH  025%=      5-min Rain = 0
KHO1 201649Z 21008KT 34/11 A30 RMK A01 T03350111  RH  026%=      5-min Rain = 0
KHO1 201650Z 22007KT 34/11 A3001 RMK A01 T03360112  RH  026%=      5-min Rain = 0
KHO1 201651Z 24006KT 34/11 A3001 RMK A01 T03390110  RH  025%=      5-min Rain = 0
KHO1 201652Z 22008KT 34/11 A3001 RMK A01 T03410110  RH  024%=      5-min Rain = 0
KHO1 201653Z 22009KT 34/11 A3001 RMK A01 T03400106  RH  024%=      5-min Rain = 0
KHO1 201654Z 21009KT 34/11 A3001 RMK A01 T03370106  RH  024%=      5-min Rain = 0
KHO1 201655Z 21007KT 34/11 A3001 RMK A01 T03380111  RH  025%=      5-min Rain = 0
KHO1 201656Z 23007KT 34/11 A3001 RMK A01 T03440113  RH  025%=      5-min Rain = 0
KHO1 201657Z 21008KT 34/11 A3001 RMK A01 T03440110  RH  024%=      5-min Rain = 0
KHO1 201658Z 19008KT 34/11 A30 RMK A01 T03410108  RH  024%=      5-min Rain = 0
KHO1 201659Z 22006KT 34/11 A3001 RMK A01 T03400109  RH  024%=      5-min Rain = 0
KHO1 201700Z 24009KT 34/11 A3001 RMK A01 T03410108  RH  024%=      5-min Rain = 0
KHO1 201701Z 22010KT 34/11 A3001 RMK A01 T03420106  RH  024%=      5-min Rain = 0
KHO1 201702Z 23008KT 34/10 A3001 RMK A01 T03410103  RH  023%=      5-min Rain = 0
KHO1 201703Z 25006KT 34/11 A3001 RMK A01 T03410107  RH  024%=      5-min Rain = 0
KHO1 201704Z 23006KT 34/10 A3001 RMK A01 T03410103  RH  023%=      5-min Rain = 0
KHO1 201705Z 22005KT 34/10 A30 RMK A01 T03400103  RH  023%=      5-min Rain = 0
KHO1 201706Z 20006KT 34/10 A30 RMK A01 T03400104  RH  024%=      5-min Rain = 0
KHO1 201707Z 20006KT 34/11 A30 RMK A01 T03410106  RH  024%=      5-min Rain = 0
KHO1 201708Z 23009KT 34/11 A30 RMK A01 T03440109  RH  024%=      5-min Rain = 0
KHO1 201709Z 24012KT 35/11 A3001 RMK A01 T03470107  RH  023%=      5-min Rain = 0
KHO1 201710Z 23010KT 34/10 A3001 RMK A01 T03440104  RH  023%=      5-min Rain = 0
KHO1 201711Z 22006KT 34/10 A3001 RMK A01 T03430102  RH  023%=      5-min Rain = 0
KHO1 201712Z 21004KT 34/10 A30 RMK A01 T03400102  RH  023%=      5-min Rain = 0
KHO1 201713Z 21005KT 34/10 A30 RMK A01 T03400104  RH  024%=      5-min Rain = 0
KHO1 201714Z 19004KT 34/10 A30 RMK A01 T03400104  RH  024%=      5-min Rain = 0
KHO1 201715Z 21006KT 34/11 A30 RMK A01 T03410105  RH  024%=      5-min Rain = 0
KHO1 201716Z 19005KT 34/10 A30 RMK A01 T03400103  RH  024%=      5-min Rain = 0
KHO1 201717Z 22010KT 34/11 A30 RMK A01 T03430107  RH  024%=      5-min Rain = 0
KHO1 201718Z 22011KT 34/11 A30 RMK A01 T03440105  RH  023%=      5-min Rain = 0
KHO1 201719Z 21010KT 34/10 A30 RMK A01 T03440103  RH  023%=      5-min Rain = 0
KHO1 201720Z 21005KT 35/11 A30 RMK A01 T03450106  RH  023%=      5-min Rain = 0
KHO1 201721Z 23004KT 35/11 A30 RMK A01 T03470107  RH  023%=      5-min Rain = 0
KHO1 201722Z 22007KT 35/10 A30 RMK A01 T03480103  RH  023%=      5-min Rain = 0
KHO1 201723Z 22008KT 35/10 A30 RMK A01 T03460103  RH  023%=      5-min Rain = 0
KHO1 201724Z 19008KT 35/11 A30 RMK A01 T03470106  RH  023%=      5-min Rain = 0
KHO1 201725Z 21008KT 35/10 A30 RMK A01 T03460104  RH  023%=      5-min Rain = 0
KHO1 201726Z 21007KT 35/11 A30 RMK A01 T03450106  RH  023%=      5-min Rain = 0
KHO1 201727Z 24009KT 35/11 A30 RMK A01 T03470105  RH  023%=      5-min Rain = 0
KHO1 201728Z 21009KT 35/11 A30 RMK A01 T03480105  RH  023%=      5-min Rain = 0
KHO1 201729Z 21009KT 35/10 A30 RMK A01 T03470102  RH  022%=      5-min Rain = 0
KHO1 201730Z 21006KT 35/10 A30 RMK A01 T03460101  RH  022%=      5-min Rain = 0
KHO1 201731Z 21007KT 35/10 A30 RMK A01 T03470104  RH  023%=      5-min Rain = 0
KHO1 201732Z 22009KT 35/10 A30 RMK A01 T03520104  RH  022%=      5-min Rain = 0
KHO1 201733Z 21009KT 35/10 A30 RMK A01 T03510102  RH  022%=      5-min Rain = 0
KHO1 201734Z 22008KT 35/11 A30 RMK A01 T03480105  RH  023%=      5-min Rain = 0
KHO1 201735Z 26005KT 35/10 A30 RMK A01 T03490103  RH  022%=      5-min Rain = 0
KHO1 201736Z 28004KT 35/10 A30 RMK A01 T03470104  RH  023%=      5-min Rain = 0
KHO1 201737Z 24005KT 35/11 A30 RMK A01 T03490106  RH  023%=      5-min Rain = 0
KHO1 201738Z 24007KT 35/11 A30 RMK A01 T03500106  RH  023%=      5-min Rain = 0
KHO1 201739Z 26005KT 35/10 A30 RMK A01 T03500102  RH  022%=      5-min Rain = 0
KHO1 201740Z 26004KT 35/10 A30 RMK A01 T03500104  RH  022%=      5-min Rain = 0
KHO1 201741Z 21004KT 35/11 A30 RMK A01 T03500106  RH  023%=      5-min Rain = 0
KHO1 201742Z 21009KT 36/11 A30 RMK A01 T03550109  RH  023%=      5-min Rain = 0
KHO1 201743Z 21011KT 36/11 A30 RMK A01 T03590106  RH  022%=      5-min Rain = 0
KHO1 201744Z 24010KT 36/11 A30 RMK A01 T03590105  RH  022%=      5-min Rain = 0
KHO1 201745Z 25008KT 35/10 A30 RMK A01 T03540101  RH  022%=      5-min Rain = 0
KHO1 201746Z 27006KT 35/10 A30 RMK A01 T03530100  RH  021%=      5-min Rain = 0
KHO1 201747Z 29004KT 35/10 A30 RMK A01 T03530102  RH  022%=      5-min Rain = 0
KHO1 201748Z 22008KT 35/10 A30 RMK A01 T03540104  RH  022%=      5-min Rain = 0
KHO1 201749Z 23008KT 35/10 A30 RMK A01 T03530103  RH  022%=      5-min Rain = 0
KHO1 201750Z 22010KT 35/10 A30 RMK A01 T03520102  RH  022%=      5-min Rain = 0
KHO1 201751Z 22007KT 35/10 A30 RMK A01 T03500101  RH  022%=      5-min Rain = 0
KHO1 201752Z 21003KT 35/10 A30 RMK A01 T03500104  RH  022%=      5-min Rain = 0
KHO1 201753Z 22006KT 35/10 A30 RMK A01 T03540104  RH  022%=      5-min Rain = 0
KHO1 201754Z 20004KT 35/10 A30 RMK A01 T03540103  RH  022%=      5-min Rain = 0
KHO1 201755Z 19002KT 36/10 A30 RMK A01 T03560102  RH  021%=      5-min Rain = 0
KHO1 201756Z 21006G11KT 36/11 A30 RMK A01 T03560105  RH  022%=      5-min Rain = 0
KHO1 201757Z 20005KT 36/10 A30 RMK A01 T03560102  RH  021%=      5-min Rain = 0
KHO1 201758Z 18004KT 35/10 A30 RMK A01 T03540102  RH  022%=      5-min Rain = 0
KHO1 201759Z 17006KT 35/10 A30 RMK A01 T03530101  RH  022%=      5-min Rain = 0
KHO1 201800Z 22007KT 35/10 A30 RMK A01 T03520103  RH  022%=      5-min Rain = 0
KHO1 201801Z 24008KT 36/11 A30 RMK A01 T03550105  RH  022%=      5-min Rain = 0
KHO1 201802Z 27007KT 36/10 A2999 RMK A01 T03580100  RH  021%=      5-min Rain = 0
KHO1 201803Z 24005KT 36/10 A30 RMK A01 T03590102  RH  021%=      5-min Rain = 0
KHO1 201804Z 20005KT 36/11 A2999 RMK A01 T03600106  RH  021%=      5-min Rain = 0
KHO1 201805Z 21005KT 36/11 A2999 RMK A01 T03630106  RH  021%=      5-min Rain = 0
KHO1 201806Z 23005KT 36/10 A2999 RMK A01 T03630101  RH  020%=      5-min Rain = 0
KHO1 201807Z 23005KT 36/10 A2999 RMK A01 T03600103  RH  021%=      5-min Rain = 0
KHO1 201808Z 26005KT 36/10 A2999 RMK A01 T03610100  RH  021%=      5-min Rain = 0
KHO1 201809Z 25003KT 36/10 A2999 RMK A01 T03610102  RH  021%=      5-min Rain = 0
KHO1 201810Z 27004KT 37/10 A2999 RMK A01 T03650100  RH  020%=      5-min Rain = 0
KHO1 201811Z 27003KT 37/10 A2999 RMK A01 T03650101  RH  020%=      5-min Rain = 0
KHO1 201812Z 20008G13KT 36/10 A2999 RMK A01 T03640101  RH  020%=      5-min Rain = 0
KHO1 201813Z 18007KT 36/10 A2999 RMK A01 T03630100  RH  020%=      5-min Rain = 0
KHO1 201814Z 20009KT 36/10 A2999 RMK A01 T03620100  RH  020%=      5-min Rain = 0
KHO1 201815Z 23007KT 36/10 A2999 RMK A01 T03620102  RH  021%=      5-min Rain = 0
KHO1 201816Z 20006KT 36/10 A2999 RMK A01 T03620100  RH  020%=      5-min Rain = 0
KHO1 201817Z 18007KT 36/10 A2999 RMK A01 T03610101  RH  021%=      5-min Rain = 0
KHO1 201818Z 19005KT 36/10 A2999 RMK A01 T03590102  RH  021%=      5-min Rain = 0
KHO1 201819Z 19004KT 36/10 A2999 RMK A01 T03620104  RH  021%=      5-min Rain = 0
KHO1 201820Z 16007G12KT 37/11 A2999 RMK A01 T03650105  RH  021%=      5-min Rain = 0
KHO1 201821Z 21011KT 37/10 A2998 RMK A01 T03670099  RH  020%=      5-min Rain = 0
KHO1 201822Z 22008KT 37/10 A2999 RMK A01 T03680100  RH  020%=      5-min Rain = 0
KHO1 201823Z 25009KT 37/10 A2999 RMK A01 T03700096  RH  019%=      5-min Rain = 0
KHO1 201824Z 26006KT 37/09 A2999 RMK A01 T03670094  RH  019%=      5-min Rain = 0
KHO1 201825Z 25004KT 37/10 A2998 RMK A01 T03650096  RH  020%=      5-min Rain = 0
KHO1 201826Z 23005KT 36/10 A2998 RMK A01 T03630095  RH  020%=      5-min Rain = 0
KHO1 201827Z 21008KT 37/10 A2998 RMK A01 T03660100  RH  020%=      5-min Rain = 0
KHO1 201828Z 20009KT 37/10 A2998 RMK A01 T03700098  RH  019%=      5-min Rain = 0
KHO1 201829Z 19006KT 37/09 A2998 RMK A01 T03670091  RH  019%=      5-min Rain = 0
KHO1 201830Z 19010KT 37/09 A2998 RMK A01 T03670094  RH  019%=      5-min Rain = 0
KHO1 201831Z 20010KT 37/10 A2998 RMK A01 T03660097  RH  020%=      5-min Rain = 0
KHO1 201832Z 19009KT 37/10 A2998 RMK A01 T03670095  RH  019%=      5-min Rain = 0
KHO1 201833Z 19007KT 36/10 A2998 RMK A01 T03640095  RH  020%=      5-min Rain = 0
KHO1 201834Z 19007KT 37/10 A2998 RMK A01 T03650095  RH  019%=      5-min Rain = 0
KHO1 201835Z 19005KT 36/09 A2998 RMK A01 T03640092  RH  019%=      5-min Rain = 0
KHO1 201836Z 14001KT 36/10 A2998 RMK A01 T03630096  RH  020%=      5-min Rain = 0
KHO1 201837Z 16002KT 37/10 A2998 RMK A01 T03660096  RH  020%=      5-min Rain = 0
KHO1 201838Z 20008KT 37/10 A2998 RMK A01 T03690099  RH  020%=      5-min Rain = 0
KHO1 201839Z 18009KT 37/09 A2998 RMK A01 T03700094  RH  019%=      5-min Rain = 0
KHO1 201840Z 21008KT 37/09 A2998 RMK A01 T03700094  RH  019%=      5-min Rain = 0
KHO1 201841Z 23010KT 37/09 A2998 RMK A01 T03700092  RH  019%=      5-min Rain = 0
KHO1 201842Z 24008KT 37/09 A2998 RMK A01 T03690092  RH  019%=      5-min Rain = 0
KHO1 201843Z 26006KT 37/09 A2998 RMK A01 T03700092  RH  019%=      5-min Rain = 0
KHO1 201844Z 23008KT 37/09 A2998 RMK A01 T03730092  RH  018%=      5-min Rain = 0
KHO1 201845Z 24008KT 37/09 A2998 RMK A01 T03740088  RH  018%=      5-min Rain = 0
KHO1 201846Z 21009KT 37/09 A2998 RMK A01 T03730089  RH  018%=      5-min Rain = 0
KHO1 201847Z 23006KT 37/09 A2998 RMK A01 T03740088  RH  018%=      5-min Rain = 0
KHO1 201848Z 17007KT 37/09 A2998 RMK A01 T03740092  RH  018%=      5-min Rain = 0
KHO1 201849Z 17007KT 37/09 A2998 RMK A01 T03710091  RH  018%=      5-min Rain = 0
KHO1 201850Z 18008KT 37/09 A2998 RMK A01 T03720092  RH  018%=      5-min Rain = 0
KHO1 201851Z 16007KT 37/09 A2998 RMK A01 T03730090  RH  018%=      5-min Rain = 0
KHO1 201852Z 17007KT 37/09 A2998 RMK A01 T03710091  RH  018%=      5-min Rain = 0
KHO1 201853Z 16009KT 37/09 A2997 RMK A01 T03730089  RH  018%=      5-min Rain = 0
KHO1 201854Z 19008KT 37/08 A2998 RMK A01 T03710080  RH  017%=      5-min Rain = 0
KHO1 201855Z 20009KT 37/09 A2998 RMK A01 T03740086  RH  017%=      5-min Rain = 0
KHO1 201856Z 21007KT 38/09 A2998 RMK A01 T03750086  RH  017%=      5-min Rain = 0
KHO1 201857Z 20007KT 38/09 A2998 RMK A01 T03760086  RH  017%=      5-min Rain = 0
KHO1 201858Z 22007KT 37/09 A2998 RMK A01 T03730085  RH  017%=      5-min Rain = 0
KHO1 201859Z 23005KT 37/09 A2997 RMK A01 T03720085  RH  017%=      5-min Rain = 0
KHO1 201900Z 18008KT 37/09 A2997 RMK A01 T03720087  RH  018%=      5-min Rain = 0
KHO1 201901Z 18008KT 37/09 A2997 RMK A01 T03740085  RH  017%=      5-min Rain = 0
KHO1 201902Z 17010KT 38/08 A2997 RMK A01 T03760079  RH  016%=      5-min Rain = 0
KHO1 201903Z 17008KT 38/07 A2997 RMK A01 T03790071  RH  015%=      5-min Rain = 0
KHO1 201904Z 17014KT 38/07 A2997 RMK A01 T03790066  RH  015%=      5-min Rain = 0
KHO1 201905Z 16013KT 38/07 A2997 RMK A01 T03780069  RH  015%=      5-min Rain = 0
KHO1 201906Z 19011KT 38/08 A2997 RMK A01 T03770079  RH  016%=      5-min Rain = 0
KHO1 201907Z 20012KT 38/08 A2997 RMK A01 T03750075  RH  016%=      5-min Rain = 0
KHO1 201908Z 21011KT 38/07 A2998 RMK A01 T03770074  RH  016%=      5-min Rain = 0
KHO1 201909Z 20011KT 38/08 A2997 RMK A01 T03770077  RH  016%=      5-min Rain = 0
KHO1 201910Z 21009KT 37/07 A2997 RMK A01 T03740071  RH  016%=      5-min Rain = 0
KHO1 201911Z 24006KT 37/08 A2997 RMK A01 T03710075  RH  016%=      5-min Rain = 0
KHO1 201912Z 26007KT 37/07 A2997 RMK A01 T03740073  RH  016%=      5-min Rain = 0
KHO1 201913Z 27010KT 38/06 A2997 RMK A01 T03780062  RH  015%=      5-min Rain = 0
KHO1 201914Z 28004KT 38/06 A2997 RMK A01 T03770064  RH  015%=      5-min Rain = 0
KHO1 201915Z 29005KT 38/07 A2997 RMK A01 T03760070  RH  015%=      5-min Rain = 0
KHO1 201916Z 28006KT 38/07 A2997 RMK A01 T03760067  RH  015%=      5-min Rain = 0
KHO1 201917Z 29003KT 38/07 A2997 RMK A01 T03750066  RH  015%=      5-min Rain = 0
KHO1 201918Z 30004KT 38/07 A2997 RMK A01 T03750070  RH  016%=      5-min Rain = 0
KHO1 201919Z 29004KT 38/07 A2997 RMK A01 T03750071  RH  016%=      5-min Rain = 0
KHO1 201920Z 30002KT 38/07 A2997 RMK A01 T03750071  RH  016%=      5-min Rain = 0
KHO1 201921Z 25003KT 38/07 A2997 RMK A01 T03760072  RH  016%=      5-min Rain = 0
KHO1 201922Z 21004KT 38/07 A2997 RMK A01 T03750066  RH  015%=      5-min Rain = 0
KHO1 201923Z 24005KT 37/07 A2997 RMK A01 T03740066  RH  015%=      5-min Rain = 0
KHO1 201924Z 23007KT 37/07 A2997 RMK A01 T03740071  RH  016%=      5-min Rain = 0
KHO1 201925Z 20010KT 38/07 A2997 RMK A01 T03760067  RH  015%=      5-min Rain = 0
KHO1 201926Z 22011KT 38/07 A2997 RMK A01 T03750065  RH  015%=      5-min Rain = 0
KHO1 201927Z 23008KT 37/06 A2997 RMK A01 T03720063  RH  015%=      5-min Rain = 0
KHO1 201928Z 21005KT 37/06 A2997 RMK A01 T03690063  RH  015%=      5-min Rain = 0
KHO1 201929Z 23004KT 37/06 A2997 RMK A01 T03680063  RH  015%=      5-min Rain = 0
KHO1 201930Z 20009G14KT 37/07 A2997 RMK A01 T03680066  RH  016%=      5-min Rain = 0
KHO1 201931Z 23006KT 37/06 A2997 RMK A01 T03670063  RH  015%=      5-min Rain = 0
KHO1 201932Z 32003KT 37/07 A2996 RMK A01 T03680071  RH  016%=      5-min Rain = 0
KHO1 201933Z 24002KT 37/07 A2996 RMK A01 T03700069  RH  016%=      5-min Rain = 0
KHO1 201934Z 19002KT 37/06 A2996 RMK A01 T03710063  RH  015%=      5-min Rain = 0
KHO1 201935Z 24005G11KT 37/07 A2996 RMK A01 T03700066  RH  015%=      5-min Rain = 0
KHO1 201936Z 21008KT 37/07 A2996 RMK A01 T03690071  RH  016%=      5-min Rain = 0
KHO1 201937Z 18009KT 37/07 A2996 RMK A01 T03690072  RH  016%=      5-min Rain = 0
KHO1 201938Z 19006KT 37/07 A2996 RMK A01 T03660070  RH  016%=      5-min Rain = 0
KHO1 201939Z 15007KT 37/07 A2996 RMK A01 T03650070  RH  016%=      5-min Rain = 0
KHO1 201940Z 15004KT 36/07 A2996 RMK A01 T03630070  RH  016%=      5-min Rain = 0
KHO1 201941Z 14008KT 36/07 A2996 RMK A01 T03630071  RH  017%=      5-min Rain = 0
KHO1 201942Z 14006KT 36/07 A2996 RMK A01 T03640070  RH  017%=      5-min Rain = 0
KHO1 201943Z 14005KT 36/07 A2996 RMK A01 T03630068  RH  016%=      5-min Rain = 0
KHO1 201944Z 12005KT 36/07 A2996 RMK A01 T03620069  RH  017%=      5-min Rain = 0
KHO1 201945Z 13004KT 36/07 A2996 RMK A01 T03630069  RH  017%=      5-min Rain = 0
KHO1 201946Z 13003KT 36/07 A2996 RMK A01 T03640070  RH  016%=      5-min Rain = 0
KHO1 201947Z 14002KT 37/07 A2996 RMK A01 T03650069  RH  016%=      5-min Rain = 0
KHO1 201948Z 12002KT 37/07 A2996 RMK A01 T03680069  RH  016%=      5-min Rain = 0
KHO1 201949Z 16004KT 37/07 A2996 RMK A01 T03690070  RH  016%=      5-min Rain = 0
KHO1 201950Z 18007KT 37/07 A2996 RMK A01 T03740074  RH  016%=      5-min Rain = 0
KHO1 201951Z 17008KT 38/07 A2996 RMK A01 T03770071  RH  015%=      5-min Rain = 0
KHO1 201952Z 20010KT 38/07 A2996 RMK A01 T03780070  RH  015%=      5-min Rain = 0
KHO1 201953Z 20008KT 38/07 A2996 RMK A01 T03790071  RH  015%=      5-min Rain = 0
KHO1 201954Z 20007KT 38/07 A2996 RMK A01 T03780067  RH  015%=      5-min Rain = 0
KHO1 201955Z 21007KT 38/07 A2996 RMK A01 T03800072  RH  015%=      5-min Rain = 0
KHO1 201956Z 23006KT 38/07 A2996 RMK A01 T03830069  RH  015%=      5-min Rain = 0
KHO1 201957Z 25009KT 38/07 A2996 RMK A01 T03830070  RH  015%=      5-min Rain = 0
KHO1 201958Z 23009KT 38/07 A2996 RMK A01 T03830072  RH  015%=      5-min Rain = 0
KHO1 201959Z 19010KT 38/07 A2996 RMK A01 T03820066  RH  015%=      5-min Rain = 0
KHO1 202000Z 18010KT 38/06 A2996 RMK A01 T03770064  RH  015%=      5-min Rain = 0
KHO1 202001Z 19010KT 38/07 A2996 RMK A01 T03760065  RH  015%=      5-min Rain = 0
KHO1 202002Z 18010KT 38/07 A2996 RMK A01 T03760065  RH  015%=      5-min Rain = 0
KHO1 202003Z 17009KT 38/07 A2996 RMK A01 T03770066  RH  015%=      5-min Rain = 0
KHO1 202004Z 16008KT 38/06 A2996 RMK A01 T03760064  RH  015%=      5-min Rain = 0
KHO1 202005Z 18006KT 37/06 A2996 RMK A01 T03730064  RH  015%=      5-min Rain = 0
KHO1 202006Z 20005KT 37/06 A2995 RMK A01 T03720064  RH  015%=      5-min Rain = 0
KHO1 202007Z 25004KT 37/07 A2995 RMK A01 T03720065  RH  015%=      5-min Rain = 0
KHO1 202008Z 26004KT 37/06 A2995 RMK A01 T03710064  RH  015%=      5-min Rain = 0
KHO1 202009Z 22005KT 37/07 A2996 RMK A01 T03710068  RH  016%=      5-min Rain = 0
KHO1 202010Z 21007KT 37/07 A2996 RMK A01 T03710065  RH  015%=      5-min Rain = 0
KHO1 202011Z 20005KT 37/06 A2996 RMK A01 T03690062  RH  015%=      5-min Rain = 0
KHO1 202012Z 20006KT 37/06 A2995 RMK A01 T03670063  RH  016%=      5-min Rain = 0
KHO1 202013Z 20009KT 37/07 A2995 RMK A01 T03680067  RH  016%=      5-min Rain = 0
KHO1 202014Z 20007KT 37/07 A2995 RMK A01 T03690067  RH  016%=      5-min Rain = 0
KHO1 202015Z 19008KT 37/07 A2995 RMK A01 T03710065  RH  015%=      5-min Rain = 0
KHO1 202016Z 19007KT 37/07 A2995 RMK A01 T03730065  RH  015%=      5-min Rain = 0
KHO1 202017Z 19008KT 37/07 A2995 RMK A01 T03740066  RH  015%=      5-min Rain = 0
KHO1 202018Z 19011KT 38/07 A2995 RMK A01 T03790068  RH  015%=      5-min Rain = 0
KHO1 202019Z 24010KT 38/07 A2995 RMK A01 T03810069  RH  015%=      5-min Rain = 0
KHO1 202020Z 26010KT 38/07 A2995 RMK A01 T03840068  RH  015%=      5-min Rain = 0
KHO1 202021Z 26007KT 38/07 A2995 RMK A01 T03840067  RH  015%=      5-min Rain = 0
KHO1 202022Z 22007KT 38/07 A2995 RMK A01 T03830067  RH  015%=      5-min Rain = 0
KHO1 202023Z 18009KT 38/07 A2995 RMK A01 T03820067  RH  015%=      5-min Rain = 0
KHO1 202024Z 18011KT 38/07 A2995 RMK A01 T03810065  RH  014%=      5-min Rain = 0
KHO1 202025Z 20008KT 38/06 A2995 RMK A01 T03770063  RH  015%=      5-min Rain = 0
KHO1 202026Z 16010KT 37/06 A2995 RMK A01 T03740063  RH  015%=      5-min Rain = 0
KHO1 202027Z 17009KT 37/06 A2995 RMK A01 T03730062  RH  015%=      5-min Rain = 0
KHO1 202028Z 16006KT 37/06 A2995 RMK A01 T03720062  RH  015%=      5-min Rain = 0
KHO1 202029Z 17004KT 37/06 A2995 RMK A01 T03710061  RH  015%=      5-min Rain = 0
KHO1 202030Z 18003KT 37/06 A2995 RMK A01 T03710062  RH  015%=      5-min Rain = 0
KHO1 202031Z 19005KT 37/06 A2995 RMK A01 T03730063  RH  015%=      5-min Rain = 0
KHO1 202032Z 19004KT 37/06 A2995 RMK A01 T03740063  RH  015%=      5-min Rain = 0
KHO1 202033Z 18004KT 38/06 A2995 RMK A01 T03760064  RH  015%=      5-min Rain = 0
KHO1 202034Z 16003KT 38/06 A2995 RMK A01 T03750061  RH  015%=      5-min Rain = 0
KHO1 202035Z 12002KT 37/06 A2995 RMK A01 T03740063  RH  015%=      5-min Rain = 0
KHO1 202036Z 15004G9KT 38/06 A2995 RMK A01 T03750063  RH  015%=      5-min Rain = 0
KHO1 202037Z 14007KT 37/06 A2995 RMK A01 T03740063  RH  015%=      5-min Rain = 0
KHO1 202038Z 16009KT 38/07 A2995 RMK A01 T03770066  RH  015%=      5-min Rain = 0
KHO1 202039Z 17007KT 38/07 A2995 RMK A01 T03780066  RH  015%=      5-min Rain = 0
KHO1 202040Z 18011KT 38/07 A2995 RMK A01 T03800065  RH  015%=      5-min Rain = 0
KHO1 202041Z 19010KT 38/07 A2995 RMK A01 T03790067  RH  015%=      5-min Rain = 0
KHO1 202042Z 19010KT 38/07 A2995 RMK A01 T03810067  RH  015%=      5-min Rain = 0
KHO1 202043Z 19009KT 38/07 A2995 RMK A01 T03790065  RH  015%=      5-min Rain = 0
KHO1 202044Z 18010KT 38/06 A2995 RMK A01 T03780064  RH  015%=      5-min Rain = 0
KHO1 202045Z 18009KT 38/07 A2994 RMK A01 T03790066  RH  015%=      5-min Rain = 0
KHO1 202046Z 18008KT 38/07 A2995 RMK A01 T03800067  RH  015%=      5-min Rain = 0
KHO1 202047Z 21005KT 38/07 A2995 RMK A01 T03820065  RH  014%=      5-min Rain = 0
KHO1 202048Z 21006KT 38/07 A2995 RMK A01 T03820065  RH  014%=      5-min Rain = 0
KHO1 202049Z 20005KT 38/07 A2994 RMK A01 T03800065  RH  015%=      5-min Rain = 0
KHO1 202050Z 19010KT 39/07 A2994 RMK A01 T03850068  RH  014%=      5-min Rain = 0
KHO1 202051Z 19008KT 38/06 A2995 RMK A01 T03830064  RH  014%=      5-min Rain = 0
KHO1 202052Z 20006KT 38/06 A2995 RMK A01 T03820063  RH  014%=      5-min Rain = 0
KHO1 202053Z 20005KT 38/06 A2995 RMK A01 T03800062  RH  014%=      5-min Rain = 0
KHO1 202054Z 20003KT 38/06 A2995 RMK A01 T03770061  RH  014%=      5-min Rain = 0
KHO1 202055Z 19006KT 38/06 A2995 RMK A01 T03760063  RH  015%=      5-min Rain = 0
KHO1 202056Z 19008KT 38/06 A2995 RMK A01 T03760062  RH  015%=      5-min Rain = 0
KHO1 202057Z 18007KT 37/06 A2994 RMK A01 T03740063  RH  015%=      5-min Rain = 0
KHO1 202058Z 20009KT 38/07 A2995 RMK A01 T03750065  RH  015%=      5-min Rain = 0
KHO1 202059Z 21009KT 38/07 A2994 RMK A01 T03750068  RH  015%=      5-min Rain = 0
KHO1 202100Z 21010KT 38/07 A2995 RMK A01 T03780070  RH  015%=      5-min Rain = 0
KHO1 202101Z 21009KT 38/07 A2995 RMK A01 T03800067  RH  015%=      5-min Rain = 0
KHO1 202102Z 23003KT 38/07 A2994 RMK A01 T03800066  RH  015%=      5-min Rain = 0
KHO1 202103Z 17001KT 38/07 A2994 RMK A01 T03800065  RH  015%=      5-min Rain = 0
KHO1 202104Z 03004KT 38/06 A2994 RMK A01 T03810064  RH  014%=      5-min Rain = 0
KHO1 202105Z 09002KT 38/06 A2994 RMK A01 T03800064  RH  015%=      5-min Rain = 0
KHO1 202106Z 15006KT 38/07 A2994 RMK A01 T03800067  RH  015%=      5-min Rain = 0
KHO1 202107Z 15009KT 38/07 A2994 RMK A01 T03830068  RH  015%=      5-min Rain = 0
KHO1 202108Z 16009KT 38/07 A2994 RMK A01 T03800066  RH  015%=      5-min Rain = 0
KHO1 202109Z 18007KT 38/06 A2994 RMK A01 T03760064  RH  015%=      5-min Rain = 0
KHO1 202110Z 15006KT 38/07 A2994 RMK A01 T03750066  RH  015%=      5-min Rain = 0
KHO1 202111Z 15006KT 38/07 A2994 RMK A01 T03750066  RH  015%=      5-min Rain = 0
KHO1 202112Z 16007KT 38/07 A2994 RMK A01 T03750066  RH  015%=      5-min Rain = 0
KHO1 202113Z 16009KT 37/07 A2994 RMK A01 T03740068  RH  015%=      5-min Rain = 0
KHO1 202114Z 15008KT 38/07 A2994 RMK A01 T03750067  RH  015%=      5-min Rain = 0
KHO1 202115Z 15005KT 38/07 A2994 RMK A01 T03770067  RH  015%=      5-min Rain = 0
KHO1 202116Z 15005KT 38/07 A2994 RMK A01 T03790069  RH  015%=      5-min Rain = 0
KHO1 202117Z 14010KT 38/07 A2994 RMK A01 T03810069  RH  015%=      5-min Rain = 0
KHO1 202118Z 14011KT 39/07 A2993 RMK A01 T03850070  RH  015%=      5-min Rain = 0
KHO1 202119Z 16009KT 39/07 A2994 RMK A01 T03860069  RH  015%=      5-min Rain = 0
KHO1 202120Z 18010KT 39/07 A2994 RMK A01 T03860069  RH  015%=      5-min Rain = 0
KHO1 202121Z 17007KT 38/07 A2994 RMK A01 T03840066  RH  014%=      5-min Rain = 0
KHO1 202122Z 18005KT 38/07 A2994 RMK A01 T03820066  RH  015%=      5-min Rain = 0
KHO1 202123Z 20006KT 38/07 A2994 RMK A01 T03820067  RH  015%=      5-min Rain = 0
KHO1 202124Z 23005KT 38/07 A2994 RMK A01 T03790065  RH  015%=      5-min Rain = 0
KHO1 202125Z 23003KT 38/07 A2994 RMK A01 T03790066  RH  015%=      5-min Rain = 0
KHO1 202126Z 14003KT 38/07 A2994 RMK A01 T03770065  RH  015%=      5-min Rain = 0
KHO1 202127Z 15007KT 38/07 A2994 RMK A01 T03760066  RH  015%=      5-min Rain = 0
KHO1 202128Z 16011KT 38/07 A2994 RMK A01 T03780070  RH  015%=      5-min Rain = 0
KHO1 202129Z 17012KT 38/07 A2994 RMK A01 T03810070  RH  015%=      5-min Rain = 0
KHO1 202130Z 17013KT 38/07 A2993 RMK A01 T03800067  RH  015%=      5-min Rain = 0
KHO1 202131Z 16014KT 38/07 A2993 RMK A01 T03760065  RH  015%=      5-min Rain = 0
KHO1 202132Z 16012KT 38/07 A2993 RMK A01 T03750066  RH  015%=      5-min Rain = 0
KHO1 202133Z 17012KT 38/07 A2993 RMK A01 T03760065  RH  015%=      5-min Rain = 0
KHO1 202134Z 16012KT 38/07 A2993 RMK A01 T03760065  RH  015%=      5-min Rain = 0
KHO1 202135Z 17012KT 38/06 A2993 RMK A01 T03770064  RH  015%=      5-min Rain = 0
KHO1 202136Z 18012KT 38/07 A2993 RMK A01 T03790065  RH  015%=      5-min Rain = 0
KHO1 202137Z 19012KT 38/06 A2993 RMK A01 T03800064  RH  015%=      5-min Rain = 0
KHO1 202138Z 19009KT 38/07 A2993 RMK A01 T03810065  RH  015%=      5-min Rain = 0
KHO1 202139Z 19010KT 38/06 A2993 RMK A01 T03810064  RH  014%=      5-min Rain = 0
KHO1 202140Z 19011KT 38/07 A2993 RMK A01 T03780066  RH  015%=      5-min Rain = 0
KHO1 202141Z 19011KT 38/07 A2993 RMK A01 T03780067  RH  015%=      5-min Rain = 0
KHO1 202142Z 20012KT 38/07 A2993 RMK A01 T03800067  RH  015%=      5-min Rain = 0
KHO1 202143Z 18013KT 38/07 A2993 RMK A01 T03820068  RH  015%=      5-min Rain = 0
KHO1 202144Z 18013KT 38/07 A2993 RMK A01 T03820066  RH  014%=      5-min Rain = 0
KHO1 202145Z 18010KT 38/07 A2993 RMK A01 T03800066  RH  015%=      5-min Rain = 0
KHO1 202146Z 18011KT 38/07 A2993 RMK A01 T03800065  RH  015%=      5-min Rain = 0
KHO1 202147Z 18010KT 38/07 A2993 RMK A01 T03800065  RH  015%=      5-min Rain = 0
KHO1 202148Z 18011KT 38/06 A2993 RMK A01 T03770063  RH  015%=      5-min Rain = 0
KHO1 202149Z 18007KT 37/06 A2993 RMK A01 T03740063  RH  015%=      5-min Rain = 0
KHO1 202150Z 17007KT 37/06 A2993 RMK A01 T03730063  RH  015%=      5-min Rain = 0
KHO1 202151Z 15006KT 37/06 A2993 RMK A01 T03730064  RH  015%=      5-min Rain = 0
KHO1 202152Z 15004KT 38/06 A2993 RMK A01 T03750064  RH  015%=      5-min Rain = 0
KHO1 202153Z 13004KT 38/07 A2993 RMK A01 T03750068  RH  015%=      5-min Rain = 0
KHO1 202154Z 15004KT 38/07 A2993 RMK A01 T03760066  RH  015%=      5-min Rain = 0
KHO1 202155Z 17009G14KT 37/07 A2993 RMK A01 T03740067  RH  015%=      5-min Rain = 0
KHO1 202156Z 17014KT 37/07 A2993 RMK A01 T03740069  RH  015%=      5-min Rain = 0
KHO1 202157Z 17011KT 37/07 A2993 RMK A01 T03720068  RH  016%=      5-min Rain = 0
KHO1 202158Z 16006KT 37/07 A2993 RMK A01 T03700070  RH  016%=      5-min Rain = 0
KHO1 202159Z 15007KT 37/07 A2993 RMK A01 T03730071  RH  016%=      5-min Rain = 0
KHO1 202200Z 16007KT 38/07 A2993 RMK A01 T03750069  RH  015%=      5-min Rain = 0
KHO1 202201Z 17008KT 38/07 A2993 RMK A01 T03750068  RH  015%=      5-min Rain = 0
KHO1 202202Z 17010G15KT 37/07 A2993 RMK A01 T03740066  RH  015%=      5-min Rain = 0
KHO1 202203Z 15009KT 37/07 A2993 RMK A01 T03730069  RH  016%=      5-min Rain = 0
KHO1 202204Z 17011KT 38/07 A2993 RMK A01 T03750069  RH  015%=      5-min Rain = 0
KHO1 202205Z 18013KT 38/07 A2993 RMK A01 T03770067  RH  015%=      5-min Rain = 0
KHO1 202206Z 19011KT 38/07 A2993 RMK A01 T03770066  RH  015%=      5-min Rain = 0
KHO1 202207Z 18012KT 38/07 A2993 RMK A01 T03790069  RH  015%=      5-min Rain = 0
KHO1 202208Z 18010KT 38/07 A2993 RMK A01 T03820069  RH  015%=      5-min Rain = 0
KHO1 202209Z 18009KT 38/07 A2993 RMK A01 T03810068  RH  015%=      5-min Rain = 0
KHO1 202210Z 19009KT 38/07 A2993 RMK A01 T03820068  RH  015%=      5-min Rain = 0
KHO1 202211Z 17007KT 38/07 A2993 RMK A01 T03820068  RH  015%=      5-min Rain = 0
KHO1 202212Z 16010KT 38/07 A2992 RMK A01 T03810067  RH  015%=      5-min Rain = 0
KHO1 202213Z 15014KT 38/07 A2992 RMK A01 T03810067  RH  015%=      5-min Rain = 0
KHO1 202214Z 15009KT 38/07 A2992 RMK A01 T03800066  RH  015%=      5-min Rain = 0
KHO1 202215Z 15008KT 38/07 A2992 RMK A01 T03810068  RH  015%=      5-min Rain = 0
KHO1 202216Z 16010KT 38/07 A2992 RMK A01 T03830068  RH  015%=      5-min Rain = 0
KHO1 202217Z 14013KT 38/07 A2992 RMK A01 T03840067  RH  015%=      5-min Rain = 0
KHO1 202218Z 13012KT 38/06 A2992 RMK A01 T03790064  RH  015%=      5-min Rain = 0
KHO1 202219Z 13010KT 38/06 A2992 RMK A01 T03770064  RH  015%=      5-min Rain = 0
KHO1 202220Z 14009KT 38/07 A2992 RMK A01 T03770066  RH  015%=      5-min Rain = 0
KHO1 202221Z 15008KT 38/07 A2992 RMK A01 T03790066  RH  015%=      5-min Rain = 0
KHO1 202222Z 17007KT 38/07 A2992 RMK A01 T03810068  RH  015%=      5-min Rain = 0
KHO1 202223Z 16007KT 38/07 A2992 RMK A01 T03820067  RH  015%=      5-min Rain = 0
KHO1 202224Z 15007KT 38/07 A2992 RMK A01 T03790065  RH  015%=      5-min Rain = 0
KHO1 202225Z 14009KT 38/07 A2992 RMK A01 T03780066  RH  015%=      5-min Rain = 0
KHO1 202226Z 14009KT 38/07 A2992 RMK A01 T03800068  RH  015%=      5-min Rain = 0
KHO1 202227Z 15010KT 38/07 A2992 RMK A01 T03810068  RH  015%=      5-min Rain = 0
KHO1 202228Z 17009KT 38/07 A2992 RMK A01 T03830070  RH  015%=      5-min Rain = 0
KHO1 202229Z 16011KT 39/07 A2992 RMK A01 T03850069  RH  015%=      5-min Rain = 0
KHO1 202230Z 15013KT 38/07 A2992 RMK A01 T03820066  RH  015%=      5-min Rain = 0
KHO1 202231Z 15009KT 38/07 A2992 RMK A01 T03790065  RH  015%=      5-min Rain = 0
KHO1 202232Z 15012KT 38/07 A2992 RMK A01 T03790066  RH  015%=      5-min Rain = 0
KHO1 202233Z 17014KT 38/07 A2992 RMK A01 T03830067  RH  014%=      5-min Rain = 0
KHO1 202234Z 18016KT 38/06 A2992 RMK A01 T03840062  RH  014%=      5-min Rain = 0
KHO1 202235Z 19012KT 38/06 A2992 RMK A01 T03800061  RH  014%=      5-min Rain = 0
KHO1 202236Z 18009KT 38/06 A2992 RMK A01 T03780062  RH  014%=      5-min Rain = 0
KHO1 202237Z 21006KT 38/06 A2992 RMK A01 T03790064  RH  015%=      5-min Rain = 0
KHO1 202238Z 19005KT 38/07 A2992 RMK A01 T03810067  RH  015%=      5-min Rain = 0
KHO1 202239Z 15010KT 38/07 A2991 RMK A01 T03840068  RH  015%=      5-min Rain = 0
KHO1 202240Z 15012KT 39/07 A2991 RMK A01 T03860066  RH  014%=      5-min Rain = 0
KHO1 202241Z 14005G10KT 38/06 A2991 RMK A01 T03820062  RH  014%=      5-min Rain = 0
KHO1 202242Z 14003KT 38/06 A2991 RMK A01 T03810064  RH  014%=      5-min Rain = 0
KHO1 202243Z 15007G12KT 38/07 A2991 RMK A01 T03820065  RH  014%=      5-min Rain = 0
KHO1 202244Z 16010KT 38/07 A2991 RMK A01 T03840065  RH  014%=      5-min Rain = 0
KHO1 202245Z 17010KT 38/06 A2991 RMK A01 T03830064  RH  014%=      5-min Rain = 0
KHO1 202246Z 17011KT 38/06 A2991 RMK A01 T03820063  RH  014%=      5-min Rain = 0
KHO1 202247Z 17012KT 38/06 A2991 RMK A01 T03830064  RH  014%=      5-min Rain = 0
KHO1 202248Z 17013KT 38/06 A2991 RMK A01 T03830062  RH  014%=      5-min Rain = 0
KHO1 202249Z 18011KT 38/06 A2991 RMK A01 T03810061  RH  014%=      5-min Rain = 0
KHO1 202250Z 18011KT 38/06 A2991 RMK A01 T03820063  RH  014%=      5-min Rain = 0
KHO1 202251Z 19009KT 38/06 A2991 RMK A01 T03820061  RH  014%=      5-min Rain = 0
KHO1 202252Z 19008KT 38/06 A2991 RMK A01 T03800061  RH  014%=      5-min Rain = 0
KHO1 202253Z 20005KT 38/06 A2991 RMK A01 T03810062  RH  014%=      5-min Rain = 0
KHO1 202254Z 18004KT 38/06 A2991 RMK A01 T03810061  RH  014%=      5-min Rain = 0
KHO1 202255Z 20005KT 38/06 A2991 RMK A01 T03830064  RH  014%=      5-min Rain = 0
KHO1 202256Z 17005KT 39/06 A2991 RMK A01 T03860063  RH  014%=      5-min Rain = 0
KHO1 202257Z 13006KT 39/06 A2991 RMK A01 T03850062  RH  014%=      5-min Rain = 0
KHO1 202258Z 14015KT 39/06 A299 RMK A01 T03870063  RH  014%=      5-min Rain = 0
KHO1 202259Z 14010G16KT 38/06 A2991 RMK A01 T03830059  RH  014%=      5-min Rain = 0
KHO1 202300Z 16005KT 38/06 A2991 RMK A01 T03790059  RH  014%=      5-min Rain = 0
KHO1 202301Z 20003KT 38/06 A2991 RMK A01 T03790060  RH  014%=      5-min Rain = 0
KHO1 202302Z 16004KT 38/06 A2991 RMK A01 T03800060  RH  014%=      5-min Rain = 0
KHO1 202303Z 15008KT 38/06 A2991 RMK A01 T03810062  RH  014%=      5-min Rain = 0
KHO1 202304Z 15011KT 38/06 A2991 RMK A01 T03830062  RH  014%=      5-min Rain = 0
KHO1 202305Z 14010KT 38/06 A2991 RMK A01 T03830061  RH  014%=      5-min Rain = 0
KHO1 202306Z 15009KT 38/06 A2991 RMK A01 T03840063  RH  014%=      5-min Rain = 0
KHO1 202307Z 16010KT 38/06 A299 RMK A01 T03840060  RH  014%=      5-min Rain = 0
KHO1 202308Z 15009KT 38/06 A299 RMK A01 T03810059  RH  014%=      5-min Rain = 0
KHO1 202309Z 17012KT 38/06 A299 RMK A01 T03830062  RH  014%=      5-min Rain = 0
KHO1 202310Z 15011G16KT 38/06 A299 RMK A01 T03820060  RH  014%=      5-min Rain = 0
KHO1 202311Z 17010KT 38/06 A299 RMK A01 T03810058  RH  014%=      5-min Rain = 0
KHO1 202312Z 16006KT 38/06 A299 RMK A01 T03780057  RH  014%=      5-min Rain = 0
KHO1 202313Z 16009G14KT 38/06 A299 RMK A01 T03780060  RH  014%=      5-min Rain = 0
KHO1 202314Z 15012KT 38/06 A299 RMK A01 T03820060  RH  014%=      5-min Rain = 0
KHO1 202315Z 15014KT 38/06 A299 RMK A01 T03830061  RH  014%=      5-min Rain = 0
KHO1 202316Z 15013KT 38/06 A299 RMK A01 T03830060  RH  014%=      5-min Rain = 0
KHO1 202317Z 17013KT 38/06 A299 RMK A01 T03820060  RH  014%=      5-min Rain = 0
KHO1 202318Z 17013KT 38/06 A299 RMK A01 T03820059  RH  014%=      5-min Rain = 0
KHO1 202319Z 17013KT 38/06 A299 RMK A01 T03820058  RH  014%=      5-min Rain = 0
KHO1 202320Z 17010KT 38/06 A299 RMK A01 T03810059  RH  014%=      5-min Rain = 0
KHO1 202321Z 18011KT 38/06 A299 RMK A01 T03830060  RH  014%=      5-min Rain = 0
KHO1 202322Z 19010KT 38/06 A299 RMK A01 T03840060  RH  014%=      5-min Rain = 0
KHO1 202323Z 18011KT 39/06 A299 RMK A01 T03850060  RH  014%=      5-min Rain = 0
KHO1 202324Z 16011KT 38/06 A299 RMK A01 T03840058  RH  014%=      5-min Rain = 0
KHO1 202325Z 16010KT 38/06 A299 RMK A01 T03810059  RH  014%=      5-min Rain = 0
KHO1 202326Z 16011KT 38/06 A299 RMK A01 T03810059  RH  014%=      5-min Rain = 0
KHO1 202327Z 15013KT 38/06 A299 RMK A01 T03820059  RH  014%=      5-min Rain = 0
KHO1 202328Z 14014KT 38/06 A299 RMK A01 T03820058  RH  014%=      5-min Rain = 0
KHO1 202329Z 15014KT 38/06 A299 RMK A01 T03810058  RH  014%=      5-min Rain = 0
KHO1 202330Z 16011KT 38/06 A299 RMK A01 T03810058  RH  014%=      5-min Rain = 0
KHO1 202331Z 17010KT 38/06 A299 RMK A01 T03820059  RH  014%=      5-min Rain = 0
KHO1 202332Z 18011KT 38/06 A299 RMK A01 T03810057  RH  014%=      5-min Rain = 0
KHO1 202333Z 18009KT 38/06 A299 RMK A01 T03810059  RH  014%=      5-min Rain = 0
KHO1 202334Z 18013KT 38/06 A299 RMK A01 T03830058  RH  014%=      5-min Rain = 0
KHO1 202335Z 18012KT 38/06 A299 RMK A01 T03830058  RH  014%=      5-min Rain = 0
KHO1 202336Z 18012KT 38/06 A299 RMK A01 T03840058  RH  014%=      5-min Rain = 0
KHO1 202337Z 18014KT 38/06 A299 RMK A01 T03830056  RH  014%=      5-min Rain = 0
KHO1 202338Z 17011KT 38/06 A299 RMK A01 T03810056  RH  014%=      5-min Rain = 0
KHO1 202339Z 18010KT 38/06 A299 RMK A01 T03810058  RH  014%=      5-min Rain = 0
KHO1 202340Z 17012KT 38/06 A299 RMK A01 T03830058  RH  014%=      5-min Rain = 0
KHO1 202341Z 17011KT 38/06 A299 RMK A01 T03810057  RH  014%=      5-min Rain = 0
KHO1 202342Z 18010KT 38/06 A299 RMK A01 T03810057  RH  014%=      5-min Rain = 0
KHO1 202343Z 18011KT 38/06 A299 RMK A01 T03810057  RH  014%=      5-min Rain = 0
KHO1 202344Z 20009KT 38/06 A299 RMK A01 T03810057  RH  014%=      5-min Rain = 0
KHO1 202345Z 20008KT 38/06 A299 RMK A01 T03810057  RH  014%=      5-min Rain = 0
KHO1 202346Z 18012G18KT 38/06 A299 RMK A01 T03820060  RH  014%=      5-min Rain = 0
KHO1 202347Z 19012KT 38/06 A299 RMK A01 T03840060  RH  014%=      5-min Rain = 0
KHO1 202348Z 18008KT 38/06 A299 RMK A01 T03830059  RH  014%=      5-min Rain = 0
KHO1 202349Z 17008KT 38/06 A299 RMK A01 T03820059  RH  014%=      5-min Rain = 0
KHO1 202350Z 16008KT 38/06 A299 RMK A01 T03810059  RH  014%=      5-min Rain = 0
KHO1 202351Z 15011KT 38/06 A299 RMK A01 T03810059  RH  014%=      5-min Rain = 0
KHO1 202352Z 15015KT 38/06 A299 RMK A01 T03810057  RH  014%=      5-min Rain = 0
KHO1 202353Z 17016KT 38/06 A299 RMK A01 T03800056  RH  014%=      5-min Rain = 0
KHO1 202354Z 16012KT 38/06 A299 RMK A01 T03800057  RH  014%=      5-min Rain = 0
KHO1 202355Z 16012KT 38/06 A299 RMK A01 T03800057  RH  014%=      5-min Rain = 0
KHO1 202356Z 16012KT 38/06 A299 RMK A01 T03800058  RH  014%=      5-min Rain = 0
KHO1 202357Z 17010KT 38/06 A299 RMK A01 T03810056  RH  014%=      5-min Rain = 0
KHO1 202358Z 18009KT 38/05 A299 RMK A01 T03810054  RH  013%=      5-min Rain = 0
KHO1 202359Z 20009KT 38/05 A299 RMK A01 T03810054  RH  013%=      5-min Rain = 0
KHO1 210000Z 20012KT 38/06 A299 RMK A01 T03810055  RH  014%=      5-min Rain = 0
KHO1 210001Z 20011KT 38/05 A299 RMK A01 T03800053  RH  013%=      5-min Rain = 0
KHO1 210002Z 21011KT 38/05 A299 RMK A01 T03790053  RH  014%=      5-min Rain = 0
KHO1 210003Z 20010KT 38/05 A299 RMK A01 T03780052  RH  013%=      5-min Rain = 0
KHO1 210004Z 20008KT 38/06 A299 RMK A01 T03790055  RH  014%=      5-min Rain = 0
KHO1 210005Z 20011KT 38/05 A299 RMK A01 T03800054  RH  014%=      5-min Rain = 0
KHO1 210006Z 19010KT 38/05 A299 RMK A01 T03790052  RH  013%=      5-min Rain = 0
KHO1 210007Z 19006KT 38/05 A299 RMK A01 T03770051  RH  013%=      5-min Rain = 0
KHO1 210008Z 20007KT 38/05 A299 RMK A01 T03760052  RH  014%=      5-min Rain = 0
KHO1 210009Z 20009KT 38/05 A299 RMK A01 T03760052  RH  014%=      5-min Rain = 0
KHO1 210010Z 20008KT 38/05 A299 RMK A01 T03750051  RH  014%=      5-min Rain = 0
KHO1 210011Z 21008KT 37/05 A299 RMK A01 T03740053  RH  014%=      5-min Rain = 0
KHO1 210012Z 20011KT 37/05 A299 RMK A01 T03720051  RH  014%=      5-min Rain = 0
KHO1 210013Z 20012KT 37/05 A299 RMK A01 T03710050  RH  014%=      5-min Rain = 0
KHO1 210014Z 21009KT 37/05 A299 RMK A01 T03710051  RH  014%=      5-min Rain = 0
KHO1 210015Z 20009KT 37/05 A299 RMK A01 T03700050  RH  014%=      5-min Rain = 0
KHO1 210016Z 19008KT 37/05 A299 RMK A01 T03690050  RH  014%=      5-min Rain = 0
KHO1 210017Z 19011KT 37/05 A299 RMK A01 T03690049  RH  014%=      5-min Rain = 0
KHO1 210018Z 19009KT 37/05 A299 RMK A01 T03690049  RH  014%=      5-min Rain = 0
KHO1 210019Z 20008KT 37/05 A299 RMK A01 T03700050  RH  014%=      5-min Rain = 0
KHO1 210020Z 18009KT 37/05 A299 RMK A01 T03710050  RH  014%=      5-min Rain = 0
KHO1 210021Z 18010KT 37/05 A299 RMK A01 T03720049  RH  014%=      5-min Rain = 0
KHO1 210022Z 18008KT 37/05 A299 RMK A01 T03730049  RH  014%=      5-min Rain = 0
KHO1 210023Z 18008KT 37/05 A299 RMK A01 T03740051  RH  014%=      5-min Rain = 0
KHO1 210024Z 18013KT 37/05 A299 RMK A01 T03730054  RH  014%=      5-min Rain = 0
KHO1 210025Z 18011KT 37/06 A299 RMK A01 T03710056  RH  014%=      5-min Rain = 0
KHO1 210026Z 17011KT 37/06 A299 RMK A01 T03700057  RH  015%=      5-min Rain = 0
KHO1 210027Z 16012KT 37/06 A299 RMK A01 T03700057  RH  015%=      5-min Rain = 0
KHO1 210028Z 18010KT 37/06 A299 RMK A01 T03690055  RH  014%=      5-min Rain = 0
KHO1 210029Z 17008KT 37/06 A299 RMK A01 T03690056  RH  015%=      5-min Rain = 0
KHO1 210030Z 17011G17KT 37/06 A299 RMK A01 T03700057  RH  015%=      5-min Rain = 0
KHO1 210031Z 17012KT 37/06 A299 RMK A01 T03710059  RH  015%=      5-min Rain = 0
KHO1 210032Z 17015KT 37/06 A299 RMK A01 T03710059  RH  015%=      5-min Rain = 0
KHO1 210033Z 16013KT 37/06 A299 RMK A01 T03710060  RH  015%=      5-min Rain = 0
KHO1 210034Z 16014KT 37/06 A299 RMK A01 T03710061  RH  015%=      5-min Rain = 0
KHO1 210035Z 17015KT 37/06 A299 RMK A01 T03710059  RH  015%=      5-min Rain = 0
KHO1 210036Z 17012KT 37/06 A299 RMK A01 T03700060  RH  015%=      5-min Rain = 0
KHO1 210037Z 16010KT 37/06 A299 RMK A01 T03710061  RH  015%=      5-min Rain = 0
KHO1 210038Z 18011G16KT 37/06 A299 RMK A01 T03710060  RH  015%=      5-min Rain = 0
KHO1 210039Z 17013KT 37/06 A299 RMK A01 T03700060  RH  015%=      5-min Rain = 0
KHO1 210040Z 18013KT 37/06 A299 RMK A01 T03700060  RH  015%=      5-min Rain = 0
KHO1 210041Z 18012KT 37/06 A299 RMK A01 T03700058  RH  015%=      5-min Rain = 0
KHO1 210042Z 17012KT 37/06 A299 RMK A01 T03700059  RH  015%=      5-min Rain = 0
KHO1 210043Z 17011KT 37/06 A299 RMK A01 T03700057  RH  015%=      5-min Rain = 0
KHO1 210044Z 17014G19KT 37/06 A299 RMK A01 T03700059  RH  015%=      5-min Rain = 0
KHO1 210045Z 17011G18KT 37/06 A299 RMK A01 T03700060  RH  015%=      5-min Rain = 0
KHO1 210046Z 17014KT 37/06 A299 RMK A01 T03690059  RH  015%=      5-min Rain = 0
KHO1 210047Z 18014KT 37/06 A299 RMK A01 T03690059  RH  015%=      5-min Rain = 0
KHO1 210048Z 17012KT 37/06 A299 RMK A01 T03680059  RH  015%=      5-min Rain = 0
KHO1 210049Z 17010KT 37/06 A299 RMK A01 T03680059  RH  015%=      5-min Rain = 0
KHO1 210050Z 18014KT 37/06 A299 RMK A01 T03680059  RH  015%=      5-min Rain = 0
KHO1 210051Z 18014KT 37/06 A2991 RMK A01 T03680059  RH  015%=      5-min Rain = 0
KHO1 210052Z 19016KT 37/06 A2991 RMK A01 T03680060  RH  015%=      5-min Rain = 0
KHO1 210053Z 18017KT 37/06 A2991 RMK A01 T03670059  RH  015%=      5-min Rain = 0
KHO1 210054Z 18017KT 37/06 A2991 RMK A01 T03670059  RH  015%=      5-min Rain = 0
KHO1 210055Z 18014KT 37/06 A2991 RMK A01 T03660060  RH  015%=      5-min Rain = 0
KHO1 210056Z 17015KT 37/06 A2991 RMK A01 T03670061  RH  015%=      5-min Rain = 0
KHO1 210057Z 17014KT 37/06 A2991 RMK A01 T03660062  RH  015%=      5-min Rain = 0
KHO1 210058Z 16015KT 37/06 A299 RMK A01 T03660061  RH  015%=      5-min Rain = 0
KHO1 210059Z 16017KT 37/06 A2991 RMK A01 T03650062  RH  015%=      5-min Rain = 0
KHO1 210100Z 17014KT 37/06 A2991 RMK A01 T03660062  RH  015%=      5-min Rain = 0
KHO1 210101Z 17014KT 37/06 A2991 RMK A01 T03650062  RH  016%=      5-min Rain = 0
KHO1 210102Z 18012KT 37/06 A2991 RMK A01 T03650064  RH  016%=      5-min Rain = 0
KHO1 210103Z 18013KT 37/06 A2991 RMK A01 T03650062  RH  016%=      5-min Rain = 0
KHO1 210104Z 18015KT 37/06 A2991 RMK A01 T03650063  RH  016%=      5-min Rain = 0
KHO1 210105Z 17013G18KT 36/06 A2991 RMK A01 T03640064  RH  016%=      5-min Rain = 0
KHO1 210106Z 17013KT 36/06 A2991 RMK A01 T03640064  RH  016%=      5-min Rain = 0
KHO1 210107Z 17012KT 36/07 A2991 RMK A01 T03640065  RH  016%=      5-min Rain = 0
KHO1 210108Z 18011KT 36/06 A2991 RMK A01 T03640064  RH  016%=      5-min Rain = 0
KHO1 210109Z 18012KT 36/06 A2991 RMK A01 T03640064  RH  016%=      5-min Rain = 0
KHO1 210110Z 18012KT 36/06 A2991 RMK A01 T03630063  RH  016%=      5-min Rain = 0
KHO1 210111Z 18011KT 36/07 A2991 RMK A01 T03630065  RH  016%=      5-min Rain = 0
KHO1 210112Z 17013KT 36/06 A2991 RMK A01 T03630064  RH  016%=      5-min Rain = 0
KHO1 210113Z 18013KT 36/06 A2991 RMK A01 T03630064  RH  016%=      5-min Rain = 0
KHO1 210114Z 18016G21KT 36/06 A2991 RMK A01 T03630062  RH  016%=      5-min Rain = 0
KHO1 210115Z 18014KT 36/06 A2991 RMK A01 T03620063  RH  016%=      5-min Rain = 0
KHO1 210116Z 18015KT 36/06 A2991 RMK A01 T03620062  RH  016%=      5-min Rain = 0
KHO1 210117Z 17014KT 36/06 A2991 RMK A01 T03620063  RH  016%=      5-min Rain = 0
KHO1 210118Z 17013KT 36/06 A2991 RMK A01 T03610063  RH  016%=      5-min Rain = 0
KHO1 210119Z 17011KT 36/06 A2991 RMK A01 T03610063  RH  016%=      5-min Rain = 0
KHO1 210120Z 17012KT 36/07 A2991 RMK A01 T03600065  RH  016%=      5-min Rain = 0
KHO1 210121Z 17015KT 36/06 A2991 RMK A01 T03600064  RH  016%=      5-min Rain = 0
KHO1 210122Z 16015KT 36/06 A2991 RMK A01 T03600063  RH  016%=      5-min Rain = 0
KHO1 210123Z 16015KT 36/06 A2991 RMK A01 T03600064  RH  016%=      5-min Rain = 0
KHO1 210124Z 17012KT 36/06 A2991 RMK A01 T03590064  RH  016%=      5-min Rain = 0
KHO1 210125Z 17010KT 36/07 A2991 RMK A01 T03590065  RH  016%=      5-min Rain = 0
KHO1 210126Z 17008KT 36/07 A2991 RMK A01 T03580066  RH  017%=      5-min Rain = 0
KHO1 210127Z 17010KT 36/07 A2991 RMK A01 T03580066  RH  017%=      5-min Rain = 0
KHO1 210128Z 17011KT 36/07 A2991 RMK A01 T03580066  RH  017%=      5-min Rain = 0
KHO1 210129Z 17011G17KT 36/07 A2991 RMK A01 T03570066  RH  017%=      5-min Rain = 0
KHO1 210130Z 17017KT 36/06 A2991 RMK A01 T03580064  RH  016%=      5-min Rain = 0
KHO1 210131Z 17013G18KT 36/07 A2991 RMK A01 T03580065  RH  016%=      5-min Rain = 0
KHO1 210132Z 17011KT 36/07 A2991 RMK A01 T03580065  RH  017%=      5-min Rain = 0
KHO1 210133Z 17012KT 36/07 A2991 RMK A01 T03570065  RH  017%=      5-min Rain = 0
KHO1 210134Z 17014KT 36/07 A2991 RMK A01 T03570065  RH  017%=      5-min Rain = 0
KHO1 210135Z 17013KT 36/07 A2991 RMK A01 T03570065  RH  017%=      5-min Rain = 0
KHO1 210136Z 17011KT 36/07 A2991 RMK A01 T03560065  RH  017%=      5-min Rain = 0
KHO1 210137Z 16012KT 36/07 A2991 RMK A01 T03560065  RH  017%=      5-min Rain = 0
KHO1 210138Z 17011KT 36/07 A2991 RMK A01 T03550065  RH  017%=      5-min Rain = 0
KHO1 210139Z 17010KT 36/07 A2991 RMK A01 T03550066  RH  017%=      5-min Rain = 0
KHO1 210140Z 17011KT 35/07 A2991 RMK A01 T03540066  RH  017%=      5-min Rain = 0
KHO1 210141Z 17013KT 35/07 A2991 RMK A01 T03540066  RH  017%=      5-min Rain = 0
KHO1 210142Z 17012KT 35/07 A2991 RMK A01 T03540066  RH  017%=      5-min Rain = 0
KHO1 210143Z 17011KT 35/07 A2991 RMK A01 T03530066  RH  017%=      5-min Rain = 0
KHO1 210144Z 17011KT 35/07 A2992 RMK A01 T03530065  RH  017%=      5-min Rain = 0
KHO1 210145Z 18010KT 35/07 A2991 RMK A01 T03520065  RH  017%=      5-min Rain = 0
KHO1 210146Z 18013KT 35/07 A2992 RMK A01 T03520065  RH  017%=      5-min Rain = 0
KHO1 210147Z 17012KT 35/07 A2992 RMK A01 T03530066  RH  017%=      5-min Rain = 0
KHO1 210148Z 17013KT 35/07 A2992 RMK A01 T03520065  RH  017%=      5-min Rain = 0
KHO1 210149Z 18013KT 35/07 A2992 RMK A01 T03520065  RH  017%=      5-min Rain = 0
KHO1 210150Z 18013KT 35/07 A2992 RMK A01 T03510065  RH  017%=      5-min Rain = 0
KHO1 210151Z 17011KT 35/07 A2992 RMK A01 T03510065  RH  017%=      5-min Rain = 0
KHO1 210152Z 17010KT 35/07 A2992 RMK A01 T03500066  RH  017%=      5-min Rain = 0
KHO1 210153Z 17011KT 35/07 A2992 RMK A01 T03490066  RH  017%=      5-min Rain = 0
KHO1 210154Z 17009KT 35/07 A2992 RMK A01 T03490067  RH  018%=      5-min Rain = 0
KHO1 210155Z 17011KT 35/07 A2992 RMK A01 T03490067  RH  018%=      5-min Rain = 0
KHO1 210156Z 17011KT 35/07 A2992 RMK A01 T03490067  RH  018%=      5-min Rain = 0
KHO1 210157Z 17010KT 35/07 A2992 RMK A01 T03490067  RH  018%=      5-min Rain = 0
KHO1 210158Z 17010KT 35/07 A2992 RMK A01 T03480068  RH  018%=      5-min Rain = 0
KHO1 210159Z 17011KT 35/07 A2992 RMK A01 T03470068  RH  018%=      5-min Rain = 0
KHO1 210200Z 17010KT 35/07 A2992 RMK A01 T03470068  RH  018%=      5-min Rain = 0
KHO1 210201Z 17012KT 35/07 A2991 RMK A01 T03470068  RH  018%=      5-min Rain = 0
KHO1 210202Z 17009KT 35/07 A2991 RMK A01 T03460068  RH  018%=      5-min Rain = 0
KHO1 210203Z 17010KT 35/07 A2991 RMK A01 T03460068  RH  018%=      5-min Rain = 0
KHO1 210204Z 17010KT 35/07 A2991 RMK A01 T03450068  RH  018%=      5-min Rain = 0
KHO1 210205Z 17009KT 35/07 A2991 RMK A01 T03450069  RH  018%=      5-min Rain = 0
KHO1 210206Z 17009KT 35/07 A2991 RMK A01 T03450069  RH  018%=      5-min Rain = 0
KHO1 210207Z 17009KT 34/07 A2991 RMK A01 T03440069  RH  018%=      5-min Rain = 0
KHO1 210208Z 17009KT 34/07 A2991 RMK A01 T03430069  RH  018%=      5-min Rain = 0
KHO1 210209Z 17009KT 34/07 A2992 RMK A01 T03430069  RH  018%=      5-min Rain = 0
KHO1 210210Z 17009KT 34/07 A2992 RMK A01 T03430070  RH  018%=      5-min Rain = 0
KHO1 210211Z 17010KT 34/07 A2992 RMK A01 T03430070  RH  019%=      5-min Rain = 0
KHO1 210212Z 17009KT 34/07 A2991 RMK A01 T03420070  RH  019%=      5-min Rain = 0
KHO1 210213Z 17008KT 34/07 A2992 RMK A01 T03420070  RH  019%=      5-min Rain = 0
KHO1 210214Z 17010KT 34/07 A2992 RMK A01 T03410070  RH  019%=      5-min Rain = 0
KHO1 210215Z 17008KT 34/07 A2992 RMK A01 T03410070  RH  019%=      5-min Rain = 0
KHO1 210216Z 17009KT 34/07 A2992 RMK A01 T03400071  RH  019%=      5-min Rain = 0
KHO1 210217Z 17009KT 34/07 A2992 RMK A01 T03390071  RH  019%=      5-min Rain = 0
KHO1 210218Z 17010KT 34/07 A2992 RMK A01 T03390071  RH  019%=      5-min Rain = 0
KHO1 210219Z 17009KT 34/07 A2992 RMK A01 T03390071  RH  019%=      5-min Rain = 0
KHO1 210220Z 17008KT 34/07 A2992 RMK A01 T03390071  RH  019%=      5-min Rain = 0
KHO1 210221Z 17008KT 34/07 A2992 RMK A01 T03390071  RH  019%=      5-min Rain = 0
KHO1 210222Z 17008KT 34/07 A2992 RMK A01 T03380071  RH  019%=      5-min Rain = 0
KHO1 210223Z 16009KT 34/07 A2992 RMK A01 T03370071  RH  019%=      5-min Rain = 0
KHO1 210224Z 17009KT 34/07 A2992 RMK A01 T03360072  RH  019%=      5-min Rain = 0
KHO1 210225Z 16010KT 34/07 A2992 RMK A01 T03360072  RH  019%=      5-min Rain = 0
KHO1 210226Z 17009KT 34/07 A2992 RMK A01 T03360072  RH  019%=      5-min Rain = 0
KHO1 210227Z 16010KT 34/07 A2992 RMK A01 T03360072  RH  019%=      5-min Rain = 0
KHO1 210228Z 17009KT 34/07 A2992 RMK A01 T03360072  RH  019%=      5-min Rain = 0
KHO1 210229Z 17009KT 34/07 A2992 RMK A01 T03360072  RH  019%=      5-min Rain = 0
KHO1 210230Z 17010KT 34/07 A2992 RMK A01 T03360072  RH  019%=      5-min Rain = 0
KHO1 210231Z 16009KT 34/07 A2992 RMK A01 T03360072  RH  020%=      5-min Rain = 0
KHO1 210232Z 17010KT 34/07 A2992 RMK A01 T03360072  RH  020%=      5-min Rain = 0
KHO1 210233Z 16010KT 34/07 A2992 RMK A01 T03360072  RH  020%=      5-min Rain = 0
KHO1 210234Z 16011KT 34/07 A2992 RMK A01 T03360072  RH  020%=      5-min Rain = 0
KHO1 210235Z 16009KT 34/07 A2992 RMK A01 T03350073  RH  020%=      5-min Rain = 0
KHO1 210236Z 16009KT 33/07 A2992 RMK A01 T03340073  RH  020%=      5-min Rain = 0
KHO1 210237Z 16010KT 33/07 A2992 RMK A01 T03330073  RH  020%=      5-min Rain = 0
KHO1 210238Z 16011KT 33/07 A2992 RMK A01 T03340074  RH  020%=      5-min Rain = 0
KHO1 210239Z 16012KT 33/08 A2992 RMK A01 T03340077  RH  020%=      5-min Rain = 0
KHO1 210240Z 16012KT 33/08 A2992 RMK A01 T03340080  RH  021%=      5-min Rain = 0
KHO1 210241Z 16012KT 34/08 A2993 RMK A01 T03350083  RH  021%=      5-min Rain = 0
KHO1 210242Z 16012KT 33/08 A2993 RMK A01 T03340084  RH  021%=      5-min Rain = 0
KHO1 210243Z 16010KT 34/08 A2993 RMK A01 T03350084  RH  021%=      5-min Rain = 0
KHO1 210244Z 16010KT 33/09 A2993 RMK A01 T03330085  RH  022%=      5-min Rain = 0
KHO1 210245Z 16012KT 33/09 A2993 RMK A01 T03330088  RH  022%=      5-min Rain = 0
KHO1 210246Z 16010KT 33/09 A2993 RMK A01 T03330089  RH  022%=      5-min Rain = 0
KHO1 210247Z 16012KT 33/09 A2993 RMK A01 T03320090  RH  023%=      5-min Rain = 0
KHO1 210248Z 16013KT 33/09 A2993 RMK A01 T03320092  RH  023%=      5-min Rain = 0
KHO1 210249Z 16011KT 33/09 A2993 RMK A01 T03320093  RH  023%=      5-min Rain = 0
KHO1 210250Z 16012KT 33/09 A2993 RMK A01 T03310093  RH  023%=      5-min Rain = 0
KHO1 210251Z 16014KT 33/09 A2993 RMK A01 T03320094  RH  023%=      5-min Rain = 0
KHO1 210252Z 16011KT 33/09 A2993 RMK A01 T03320094  RH  023%=      5-min Rain = 0
KHO1 210253Z 17013KT 33/10 A2993 RMK A01 T03310095  RH  023%=      5-min Rain = 0
KHO1 210254Z 16013KT 33/10 A2993 RMK A01 T03320096  RH  023%=      5-min Rain = 0
KHO1 210255Z 17015KT 33/10 A2993 RMK A01 T03320096  RH  024%=      5-min Rain = 0
KHO1 210256Z 16014KT 33/10 A2993 RMK A01 T03320096  RH  024%=      5-min Rain = 0
KHO1 210257Z 16015KT 33/10 A2993 RMK A01 T03320097  RH  024%=      5-min Rain = 0
KHO1 210258Z 17013KT 33/10 A2993 RMK A01 T03320097  RH  024%=      5-min Rain = 0
KHO1 210259Z 17014KT 33/10 A2993 RMK A01 T03310097  RH  024%=      5-min Rain = 0
KHO1 210300Z 17015KT 33/10 A2993 RMK A01 T03310097  RH  024%=      5-min Rain = 0
KHO1 210301Z 16015KT 33/10 A2993 RMK A01 T03310097  RH  024%=      5-min Rain = 0
KHO1 210302Z 17015KT 33/10 A2994 RMK A01 T03300097  RH  024%=      5-min Rain = 0
KHO1 210303Z 17014KT 33/10 A2994 RMK A01 T03300097  RH  024%=      5-min Rain = 0
KHO1 210304Z 16013KT 33/10 A2994 RMK A01 T03300097  RH  024%=      5-min Rain = 0
KHO1 210305Z 17012G17KT 33/10 A2994 RMK A01 T03290097  RH  024%=      5-min Rain = 0
KHO1 210306Z 17011KT 33/10 A2994 RMK A01 T03290097  RH  024%=      5-min Rain = 0
KHO1 210307Z 16014KT 33/10 A2994 RMK A01 T03280098  RH  024%=      5-min Rain = 0
KHO1 210308Z 17014KT 33/10 A2994 RMK A01 T03280098  RH  024%=      5-min Rain = 0
KHO1 210309Z 17017KT 33/10 A2994 RMK A01 T03280098  RH  024%=      5-min Rain = 0
KHO1 210310Z 17017G22KT 33/10 A2994 RMK A01 T03290098  RH  024%=      5-min Rain = 0
KHO1 210311Z 17015KT 33/10 A2994 RMK A01 T03290098  RH  024%=      5-min Rain = 0
KHO1 210312Z 17014KT 33/10 A2994 RMK A01 T03280098  RH  024%=      5-min Rain = 0
KHO1 210313Z 17014KT 33/10 A2994 RMK A01 T03280098  RH  024%=      5-min Rain = 0
KHO1 210314Z 17017KT 33/10 A2994 RMK A01 T03280098  RH  024%=      5-min Rain = 0
KHO1 210315Z 17015KT 33/10 A2994 RMK A01 T03280098  RH  024%=      5-min Rain = 0
KHO1 210316Z 17014G19KT 33/10 A2994 RMK A01 T03270098  RH  025%=      5-min Rain = 0
KHO1 210317Z 17016KT 33/10 A2994 RMK A01 T03270098  RH  025%=      5-min Rain = 0
KHO1 210318Z 17013KT 33/10 A2994 RMK A01 T03270099  RH  025%=      5-min Rain = 0
KHO1 210319Z 17017KT 33/10 A2994 RMK A01 T03260099  RH  025%=      5-min Rain = 0
KHO1 210320Z 17015KT 33/10 A2995 RMK A01 T03260099  RH  025%=      5-min Rain = 0
KHO1 210321Z 16017KT 33/10 A2994 RMK A01 T03260099  RH  025%=      5-min Rain = 0
KHO1 210322Z 17015KT 33/10 A2995 RMK A01 T03260099  RH  025%=      5-min Rain = 0
KHO1 210323Z 17018KT 33/10 A2994 RMK A01 T03250100  RH  025%=      5-min Rain = 0
KHO1 210324Z 17017KT 33/10 A2994 RMK A01 T03260100  RH  025%=      5-min Rain = 0
KHO1 210325Z 16014KT 33/10 A2995 RMK A01 T03250100  RH  025%=      5-min Rain = 0
KHO1 210326Z 17016G21KT 33/10 A2995 RMK A01 T03250100  RH  025%=      5-min Rain = 0
KHO1 210327Z 17018KT 33/10 A2995 RMK A01 T03250101  RH  025%=      5-min Rain = 0
KHO1 210328Z 17019KT 33/10 A2995 RMK A01 T03250101  RH  025%=      5-min Rain = 0
KHO1 210329Z 17016G21KT 33/10 A2995 RMK A01 T03250102  RH  025%=      5-min Rain = 0
KHO1 210330Z 17019G25KT 32/10 A2995 RMK A01 T03240102  RH  026%=      5-min Rain = 0
KHO1 210331Z 17018KT 32/10 A2995 RMK A01 T03240102  RH  026%=      5-min Rain = 0
KHO1 210332Z 17018G23KT 32/10 A2995 RMK A01 T03240103  RH  026%=      5-min Rain = 0
KHO1 210333Z 17016KT 32/10 A2995 RMK A01 T03230103  RH  026%=      5-min Rain = 0
KHO1 210334Z 17016KT 32/10 A2995 RMK A01 T03230103  RH  026%=      5-min Rain = 0
KHO1 210335Z 17016KT 32/10 A2995 RMK A01 T03220103  RH  026%=      5-min Rain = 0
KHO1 210336Z 17015KT 32/10 A2995 RMK A01 T03220103  RH  026%=      5-min Rain = 0
KHO1 210337Z 17015KT 32/10 A2995 RMK A01 T03210104  RH  026%=      5-min Rain = 0
KHO1 210338Z 17017KT 32/10 A2995 RMK A01 T03210104  RH  026%=      5-min Rain = 0
KHO1 210339Z 17016KT 32/10 A2995 RMK A01 T03210104  RH  026%=      5-min Rain = 0
KHO1 210340Z 17014KT 32/10 A2995 RMK A01 T03200104  RH  026%=      5-min Rain = 0
KHO1 210341Z 17014KT 32/10 A2995 RMK A01 T03200104  RH  027%=      5-min Rain = 0
KHO1 210342Z 17013KT 32/11 A2995 RMK A01 T03190105  RH  027%=      5-min Rain = 0
KHO1 210343Z 17014G20KT 32/11 A2995 RMK A01 T03190105  RH  027%=      5-min Rain = 0
KHO1 210344Z 17016KT 32/11 A2995 RMK A01 T03180105  RH  027%=      5-min Rain = 0
KHO1 210345Z 17014KT 32/11 A2996 RMK A01 T03180105  RH  027%=      5-min Rain = 0
KHO1 210346Z 17013KT 32/11 A2996 RMK A01 T03180105  RH  027%=      5-min Rain = 0
KHO1 210347Z 16015KT 32/11 A2996 RMK A01 T03170105  RH  027%=      5-min Rain = 0
KHO1 210348Z 17016KT 32/11 A2996 RMK A01 T03180105  RH  027%=      5-min Rain = 0
KHO1 210349Z 17015G21KT 32/11 A2996 RMK A01 T03180105  RH  027%=      5-min Rain = 0
KHO1 210350Z 17015G20KT 32/11 A2996 RMK A01 T03170105  RH  027%=      5-min Rain = 0
KHO1 210351Z 17013KT 32/11 A2996 RMK A01 T03170105  RH  027%=      5-min Rain = 0
KHO1 210352Z 17012G18KT 32/11 A2996 RMK A01 T03160105  RH  027%=      5-min Rain = 0
KHO1 210353Z 17013KT 32/11 A2996 RMK A01 T03150105  RH  027%=      5-min Rain = 0
KHO1 210354Z 17015KT 32/11 A2996 RMK A01 T03160105  RH  027%=      5-min Rain = 0
KHO1 210355Z 17015KT 32/11 A2996 RMK A01 T03160105  RH  027%=      5-min Rain = 0
KHO1 210356Z 17014G19KT 32/11 A2996 RMK A01 T03150105  RH  027%=      5-min Rain = 0
KHO1 210357Z 17014KT 32/11 A2996 RMK A01 T03150105  RH  027%=      5-min Rain = 0
KHO1 210358Z 17015G20KT 32/11 A2996 RMK A01 T03150105  RH  027%=      5-min Rain = 0
KHO1 210359Z 17014KT 32/11 A2996 RMK A01 T03150105  RH  027%=      5-min Rain = 0
KHO1 210400Z 17015KT 31/11 A2996 RMK A01 T03140105  RH  027%=      5-min Rain = 0
KHO1 210401Z 17014G20KT 31/11 A2996 RMK A01 T03140105  RH  028%=      5-min Rain = 0
KHO1 210402Z 17015KT 31/10 A2996 RMK A01 T03140104  RH  027%=      5-min Rain = 0
KHO1 210403Z 17015KT 31/10 A2996 RMK A01 T03140104  RH  027%=      5-min Rain = 0
KHO1 210404Z 16015KT 31/10 A2996 RMK A01 T03140104  RH  027%=      5-min Rain = 0
KHO1 210405Z 17013KT 31/10 A2996 RMK A01 T03130104  RH  028%=      5-min Rain = 0
KHO1 210406Z 17014KT 31/10 A2996 RMK A01 T03120104  RH  028%=      5-min Rain = 0
KHO1 210407Z 17014KT 31/10 A2996 RMK A01 T03120103  RH  028%=      5-min Rain = 0
KHO1 210408Z 17015KT 31/10 A2996 RMK A01 T03120103  RH  028%=      5-min Rain = 0
KHO1 210409Z 17014KT 31/10 A2996 RMK A01 T03120103  RH  027%=      5-min Rain = 0
KHO1 210410Z 17016G21KT 31/10 A2996 RMK A01 T03120102  RH  027%=      5-min Rain = 0
KHO1 210411Z 17017KT 31/10 A2996 RMK A01 T03120101  RH  027%=      5-min Rain = 0
KHO1 210412Z 17016KT 31/10 A2996 RMK A01 T03120101  RH  027%=      5-min Rain = 0
KHO1 210413Z 17016KT 31/10 A2996 RMK A01 T03110101  RH  027%=      5-min Rain = 0
KHO1 210414Z 17016KT 31/10 A2996 RMK A01 T03110101  RH  027%=      5-min Rain = 0
KHO1 210415Z 17017KT 31/10 A2996 RMK A01 T03100101  RH  027%=      5-min Rain = 0
KHO1 210416Z 17018KT 31/10 A2996 RMK A01 T03110100  RH  027%=      5-min Rain = 0
KHO1 210417Z 17017KT 31/10 A2996 RMK A01 T03110100  RH  027%=      5-min Rain = 0
KHO1 210418Z 17018G24KT 31/10 A2996 RMK A01 T03110100  RH  027%=      5-min Rain = 0
KHO1 210419Z 17015G20KT 31/10 A2996 RMK A01 T03100100  RH  027%=      5-min Rain = 0
KHO1 210420Z 17016G21KT 31/10 A2996 RMK A01 T03100099  RH  027%=      5-min Rain = 0
KHO1 210421Z 17017KT 31/10 A2996 RMK A01 T03100099  RH  027%=      5-min Rain = 0
KHO1 210422Z 17013KT 31/10 A2996 RMK A01 T03090099  RH  027%=      5-min Rain = 0
KHO1 210423Z 17016KT 31/10 A2996 RMK A01 T03080099  RH  027%=      5-min Rain = 0
KHO1 210424Z 17014KT 31/10 A2996 RMK A01 T03080099  RH  027%=      5-min Rain = 0
KHO1 210425Z 17017G23KT 31/10 A2996 RMK A01 T03080099  RH  027%=      5-min Rain = 0
KHO1 210426Z 17016KT 31/10 A2996 RMK A01 T03080099  RH  027%=      5-min Rain = 0
KHO1 210427Z 17013KT 31/10 A2996 RMK A01 T03080099  RH  028%=      5-min Rain = 0
KHO1 210428Z 17014KT 31/10 A2996 RMK A01 T03070099  RH  028%=      5-min Rain = 0
KHO1 210429Z 17015G20KT 31/10 A2996 RMK A01 T03070099  RH  028%=      5-min Rain = 0
KHO1 210430Z 17015G20KT 31/10 A2997 RMK A01 T03070099  RH  028%=      5-min Rain = 0
KHO1 210431Z 17016KT 31/10 A2997 RMK A01 T03060099  RH  028%=      5-min Rain = 0
KHO1 210432Z 17019G24KT 31/10 A2997 RMK A01 T03070100  RH  028%=      5-min Rain = 0
KHO1 210433Z 17017G22KT 31/10 A2997 RMK A01 T03070100  RH  028%=      5-min Rain = 0
KHO1 210434Z 17015KT 31/10 A2997 RMK A01 T03060100  RH  028%=      5-min Rain = 0
KHO1 210435Z 17016KT 31/10 A2997 RMK A01 T03060100  RH  028%=      5-min Rain = 0
KHO1 210436Z 17015G20KT 31/10 A2997 RMK A01 T03060100  RH  028%=      5-min Rain = 0
KHO1 210437Z 17016KT 31/10 A2997 RMK A01 T03050100  RH  028%=      5-min Rain = 0
KHO1 210438Z 17015KT 31/10 A2997 RMK A01 T03050100  RH  028%=      5-min Rain = 0
KHO1 210439Z 17016G21KT 30/10 A2997 RMK A01 T03040100  RH  028%=      5-min Rain = 0
KHO1 210440Z 17014KT 30/10 A2997 RMK A01 T03040100  RH  028%=      5-min Rain = 0
KHO1 210441Z 17017KT 30/10 A2997 RMK A01 T03040100  RH  028%=      5-min Rain = 0
KHO1 210442Z 17016KT 30/10 A2997 RMK A01 T03040101  RH  028%=      5-min Rain = 0
KHO1 210443Z 17017G22KT 30/10 A2997 RMK A01 T03040101  RH  028%=      5-min Rain = 0
KHO1 210444Z 17017KT 30/10 A2997 RMK A01 T03040101  RH  029%=      5-min Rain = 0
KHO1 210445Z 17017KT 30/10 A2997 RMK A01 T03030101  RH  029%=      5-min Rain = 0
KHO1 210446Z 17018KT 30/10 A2997 RMK A01 T03030101  RH  029%=      5-min Rain = 0
KHO1 210447Z 17015KT 30/10 A2997 RMK A01 T03030101  RH  029%=      5-min Rain = 0
KHO1 210448Z 17015G20KT 30/10 A2997 RMK A01 T03020101  RH  029%=      5-min Rain = 0
KHO1 210449Z 17015KT 30/10 A2997 RMK A01 T03020101  RH  029%=      5-min Rain = 0
KHO1 210450Z 17013KT 30/10 A2998 RMK A01 T03010101  RH  029%=      5-min Rain = 0
KHO1 210451Z 17012KT 30/10 A2998 RMK A01 T03010102  RH  029%=      5-min Rain = 0
KHO1 210452Z 18013KT 30/10 A2998 RMK A01 T03000102  RH  029%=      5-min Rain = 0
KHO1 210453Z 17013KT 30/10 A2998 RMK A01 T03000102  RH  029%=      5-min Rain = 0
KHO1 210454Z 18014KT 30/10 A2998 RMK A01 T03000102  RH  029%=      5-min Rain = 0
KHO1 210455Z 18013KT 30/10 A2998 RMK A01 T03000102  RH  029%=      5-min Rain = 0
KHO1 210456Z 18014KT 30/10 A2998 RMK A01 T03000102  RH  029%=      5-min Rain = 0
KHO1 210457Z 18014KT 30/10 A2998 RMK A01 T03000102  RH  029%=      5-min Rain = 0
KHO1 210458Z 18014KT 30/10 A2998 RMK A01 T02990102  RH  029%=      5-min Rain = 0
KHO1 210459Z 18014KT 30/10 A2998 RMK A01 T02990102  RH  030%=      5-min Rain = 0

Page generated in 0.1257 seconds.